TSC418 CYYZ-EDDB
Flight info
| Callsign | TSC418 |
|---|---|
| Flight time | 7h 30m |
| Altitude | 31000 |
| Route | SEDOG6 BOBSU DCT BAREE N647B RIKAL/M078F340 DCT 53N050W 54N040W 55N030W 56N020W DCT PIKIL DCT SOVED/N0443F350 DCT MIMKU DCT TLA/N0451F370 DCT RENEQ DCT BUMIL L619 VIBIS T209 OGBER OGBER1R |
| Aircraft | A21N/M-SDE3FGHIRWY/LB1 |
Departure
| Time | 2026-05-06 12:57 |
|---|---|
| Airport | Toronto Pearson International Airport (CYYZ) |
Arrival
| Time | 2026-05-06 20:27 |
|---|---|
| Airport | Berlin Brandenburg Airport (EDDB) |
| Time | Latitude | Longitude | Altitude | Speed | Heading |
|---|---|---|---|---|---|
| 2026-05-06 12:17 | 43.68720 | -79.62521 | 549 ft | 0 kts | 311° |
| 2026-05-06 12:41 | 43.68714 | -79.62511 | 549 ft | 1 kts | 311° |
| 2026-05-06 12:41 | 43.68707 | -79.62502 | 549 ft | 2 kts | 309° |
| 2026-05-06 12:41 | 43.68700 | -79.62484 | 549 ft | 2 kts | 292° |
| 2026-05-06 12:41 | 43.68695 | -79.62464 | 549 ft | 2 kts | 279° |
| 2026-05-06 12:42 | 43.68694 | -79.62444 | 549 ft | 2 kts | 267° |
| 2026-05-06 12:42 | 43.68696 | -79.62424 | 549 ft | 2 kts | 255° |
| 2026-05-06 12:42 | 43.68700 | -79.62406 | 549 ft | 2 kts | 243° |
| 2026-05-06 12:42 | 43.68705 | -79.62394 | 549 ft | 1 kts | 233° |
| 2026-05-06 12:43 | 43.68708 | -79.62390 | 549 ft | 0 kts | 234° |
| 2026-05-06 12:45 | 43.68707 | -79.62391 | 549 ft | 1 kts | 234° |
| 2026-05-06 12:46 | 43.68695 | -79.62416 | 549 ft | 5 kts | 235° |
| 2026-05-06 12:46 | 43.68669 | -79.62468 | 549 ft | 7 kts | 235° |
| 2026-05-06 12:46 | 43.68638 | -79.62528 | 549 ft | 8 kts | 234° |
| 2026-05-06 12:46 | 43.68599 | -79.62590 | 549 ft | 8 kts | 224° |
| 2026-05-06 12:47 | 43.68546 | -79.62631 | 549 ft | 9 kts | 182° |
| 2026-05-06 12:47 | 43.68489 | -79.62669 | 549 ft | 9 kts | 225° |
| 2026-05-06 12:47 | 43.68441 | -79.62736 | 549 ft | 10 kts | 226° |
| 2026-05-06 12:47 | 43.68379 | -79.62765 | 549 ft | 10 kts | 153° |
| 2026-05-06 12:48 | 43.68325 | -79.62697 | 549 ft | 10 kts | 136° |
| 2026-05-06 12:48 | 43.68270 | -79.62624 | 549 ft | 11 kts | 136° |
| 2026-05-06 12:48 | 43.68214 | -79.62552 | 549 ft | 11 kts | 137° |
| 2026-05-06 12:48 | 43.68153 | -79.62475 | 549 ft | 11 kts | 136° |
| 2026-05-06 12:49 | 43.68092 | -79.62395 | 549 ft | 12 kts | 136° |
| 2026-05-06 12:49 | 43.68030 | -79.62314 | 549 ft | 12 kts | 136° |
| 2026-05-06 12:49 | 43.67966 | -79.62231 | 549 ft | 12 kts | 136° |
| 2026-05-06 12:49 | 43.67893 | -79.62164 | 549 ft | 13 kts | 164° |
| 2026-05-06 12:50 | 43.67814 | -79.62103 | 549 ft | 13 kts | 134° |
| 2026-05-06 12:50 | 43.67748 | -79.62014 | 549 ft | 13 kts | 136° |
| 2026-05-06 12:50 | 43.67677 | -79.61923 | 549 ft | 13 kts | 136° |
| 2026-05-06 12:50 | 43.67608 | -79.61831 | 549 ft | 13 kts | 136° |
| 2026-05-06 12:51 | 43.67535 | -79.61736 | 549 ft | 14 kts | 136° |
| 2026-05-06 12:51 | 43.67460 | -79.61639 | 548 ft | 15 kts | 136° |
| 2026-05-06 12:51 | 43.67380 | -79.61532 | 545 ft | 17 kts | 135° |
| 2026-05-06 12:51 | 43.67286 | -79.61411 | 540 ft | 19 kts | 141° |
| 2026-05-06 12:52 | 43.67205 | -79.61346 | 537 ft | 12 kts | 190° |
| 2026-05-06 12:52 | 43.67133 | -79.61425 | 537 ft | 13 kts | 223° |
| 2026-05-06 12:52 | 43.67066 | -79.61511 | 538 ft | 12 kts | 223° |
| 2026-05-06 12:52 | 43.67005 | -79.61588 | 540 ft | 11 kts | 222° |
| 2026-05-06 12:53 | 43.66950 | -79.61656 | 541 ft | 9 kts | 222° |
| 2026-05-06 12:53 | 43.66896 | -79.61725 | 542 ft | 11 kts | 222° |
| 2026-05-06 12:53 | 43.66837 | -79.61800 | 542 ft | 12 kts | 222° |
| 2026-05-06 12:53 | 43.66769 | -79.61886 | 543 ft | 13 kts | 222° |
| 2026-05-06 12:54 | 43.66701 | -79.61972 | 543 ft | 13 kts | 222° |
| 2026-05-06 12:54 | 43.66630 | -79.62062 | 540 ft | 15 kts | 222° |
| 2026-05-06 12:54 | 43.66546 | -79.62167 | 537 ft | 17 kts | 221° |
| 2026-05-06 12:54 | 43.66449 | -79.62286 | 532 ft | 19 kts | 221° |
| 2026-05-06 12:55 | 43.66347 | -79.62419 | 525 ft | 19 kts | 222° |
| 2026-05-06 12:55 | 43.66265 | -79.62502 | 520 ft | 13 kts | 192° |
| 2026-05-06 12:55 | 43.66184 | -79.62444 | 518 ft | 11 kts | 135° |
| 2026-05-06 12:55 | 43.66135 | -79.62375 | 517 ft | 10 kts | 132° |
| 2026-05-06 12:56 | 43.66137 | -79.62299 | 519 ft | 6 kts | 44° |
| 2026-05-06 12:56 | 43.66204 | -79.62200 | 524 ft | 40 kts | 47° |
| 2026-05-06 12:56 | 43.66551 | -79.61697 | 532 ft | 107 kts | 46° |
| 2026-05-06 12:56 | 43.67184 | -79.60777 | 527 ft | 163 kts | 45° |
| 2026-05-06 12:57 | 43.68042 | -79.59560 | 997 ft | 176 kts | 48° |
| 2026-05-06 12:57 | 43.68856 | -79.58328 | 1691 ft | 177 kts | 51° |
| 2026-05-06 12:57 | 43.69662 | -79.57034 | 2387 ft | 178 kts | 49° |
| 2026-05-06 12:57 | 43.70509 | -79.55736 | 2723 ft | 189 kts | 47° |
| 2026-05-06 12:58 | 43.71433 | -79.54363 | 3027 ft | 201 kts | 47° |
| 2026-05-06 12:58 | 43.72399 | -79.52934 | 3482 ft | 205 kts | 47° |
| 2026-05-06 12:58 | 43.73399 | -79.51439 | 3887 ft | 214 kts | 47° |
| 2026-05-06 12:58 | 43.74452 | -79.49945 | 4217 ft | 223 kts | 37° |
| 2026-05-06 12:59 | 43.75922 | -79.49063 | 4329 ft | 240 kts | 3° |
| 2026-05-06 12:59 | 43.77605 | -79.49434 | 4579 ft | 251 kts | 330° |
| 2026-05-06 12:59 | 43.79064 | -79.50800 | 5010 ft | 259 kts | 323° |
| 2026-05-06 12:59 | 43.80606 | -79.52239 | 5521 ft | 266 kts | 327° |
| 2026-05-06 13:00 | 43.82233 | -79.53507 | 6125 ft | 269 kts | 330° |
| 2026-05-06 13:00 | 43.83946 | -79.54594 | 6734 ft | 271 kts | 335° |
| 2026-05-06 13:00 | 43.85657 | -79.55674 | 7349 ft | 272 kts | 330° |
| 2026-05-06 13:00 | 43.87376 | -79.56833 | 7942 ft | 274 kts | 330° |
| 2026-05-06 13:01 | 43.89122 | -79.57931 | 8493 ft | 278 kts | 336° |
| 2026-05-06 13:01 | 43.91029 | -79.58527 | 9008 ft | 287 kts | 349° |
| 2026-05-06 13:01 | 43.93051 | -79.58616 | 9548 ft | 292 kts | 354° |
| 2026-05-06 13:01 | 43.95108 | -79.58579 | 10051 ft | 296 kts | 354° |
| 2026-05-06 13:02 | 43.97200 | -79.58534 | 10406 ft | 305 kts | 354° |
| 2026-05-06 13:02 | 43.99372 | -79.58483 | 10637 ft | 319 kts | 357° |
| 2026-05-06 13:02 | 44.01614 | -79.58079 | 10872 ft | 336 kts | 7° |
| 2026-05-06 13:02 | 44.03917 | -79.57173 | 11105 ft | 351 kts | 13° |
| 2026-05-06 13:03 | 44.06281 | -79.56032 | 11338 ft | 364 kts | 15° |
| 2026-05-06 13:03 | 44.08714 | -79.54819 | 11553 ft | 376 kts | 15° |
| 2026-05-06 13:03 | 44.11189 | -79.53587 | 11845 ft | 384 kts | 15° |
| 2026-05-06 13:03 | 44.13752 | -79.52317 | 12291 ft | 388 kts | 14° |
| 2026-05-06 13:04 | 44.16295 | -79.51065 | 12720 ft | 391 kts | 14° |
| 2026-05-06 13:04 | 44.18870 | -79.49805 | 13108 ft | 394 kts | 14° |
| 2026-05-06 13:04 | 44.21518 | -79.48510 | 13504 ft | 399 kts | 14° |
| 2026-05-06 13:04 | 44.24147 | -79.47227 | 13909 ft | 402 kts | 13° |
| 2026-05-06 13:05 | 44.26770 | -79.45943 | 14304 ft | 406 kts | 14° |
| 2026-05-06 13:05 | 44.29481 | -79.44614 | 14710 ft | 409 kts | 14° |
| 2026-05-06 13:05 | 44.32178 | -79.43297 | 15139 ft | 411 kts | 13° |
| 2026-05-06 13:05 | 44.34854 | -79.41988 | 15521 ft | 413 kts | 14° |
| 2026-05-06 13:06 | 44.37570 | -79.40533 | 15940 ft | 417 kts | 18° |
| 2026-05-06 13:06 | 44.40205 | -79.38779 | 16331 ft | 423 kts | 23° |
| 2026-05-06 13:06 | 44.42778 | -79.36726 | 16694 ft | 427 kts | 26° |
| 2026-05-06 13:06 | 44.45371 | -79.34536 | 17071 ft | 430 kts | 28° |
| 2026-05-06 13:07 | 44.47925 | -79.32355 | 17399 ft | 432 kts | 28° |
| 2026-05-06 13:07 | 44.50497 | -79.30164 | 17736 ft | 435 kts | 27° |
| 2026-05-06 13:07 | 44.53106 | -79.27947 | 18045 ft | 438 kts | 27° |
| 2026-05-06 13:07 | 44.55691 | -79.25755 | 18351 ft | 440 kts | 27° |
| 2026-05-06 13:08 | 44.58321 | -79.23528 | 18685 ft | 442 kts | 27° |
| 2026-05-06 13:08 | 44.60992 | -79.21266 | 19005 ft | 444 kts | 27° |
| 2026-05-06 13:08 | 44.63622 | -79.19038 | 19302 ft | 447 kts | 27° |
| 2026-05-06 13:08 | 44.66275 | -79.16788 | 19599 ft | 449 kts | 27° |
| 2026-05-06 13:09 | 44.68972 | -79.14496 | 19908 ft | 450 kts | 27° |
| 2026-05-06 13:09 | 44.71656 | -79.12215 | 20197 ft | 453 kts | 27° |
| 2026-05-06 13:09 | 44.74357 | -79.09914 | 20496 ft | 454 kts | 27° |
| 2026-05-06 13:09 | 44.77058 | -79.07612 | 20795 ft | 456 kts | 27° |
| 2026-05-06 13:10 | 44.79765 | -79.05304 | 21063 ft | 458 kts | 27° |
| 2026-05-06 13:10 | 44.82499 | -79.02969 | 21325 ft | 461 kts | 27° |
| 2026-05-06 13:10 | 44.85225 | -79.00638 | 21608 ft | 462 kts | 27° |
| 2026-05-06 13:10 | 44.87988 | -78.98274 | 21882 ft | 464 kts | 27° |
| 2026-05-06 13:11 | 44.90759 | -78.95882 | 22125 ft | 466 kts | 27° |
| 2026-05-06 13:11 | 44.93511 | -78.93481 | 22418 ft | 467 kts | 27° |
| 2026-05-06 13:11 | 44.96269 | -78.91071 | 22666 ft | 469 kts | 27° |
| 2026-05-06 13:11 | 44.99016 | -78.88664 | 22911 ft | 471 kts | 27° |
| 2026-05-06 13:12 | 45.01823 | -78.86202 | 23139 ft | 473 kts | 27° |
| 2026-05-06 13:12 | 45.04631 | -78.83739 | 23370 ft | 475 kts | 27° |
| 2026-05-06 13:12 | 45.07412 | -78.81297 | 23607 ft | 476 kts | 27° |
| 2026-05-06 13:12 | 45.10216 | -78.78828 | 23836 ft | 478 kts | 27° |
| 2026-05-06 13:13 | 45.13064 | -78.76320 | 24044 ft | 480 kts | 27° |
| 2026-05-06 13:13 | 45.15896 | -78.73823 | 24261 ft | 482 kts | 27° |
| 2026-05-06 13:13 | 45.18737 | -78.71316 | 24456 ft | 484 kts | 27° |
| 2026-05-06 13:13 | 45.21589 | -78.68800 | 24674 ft | 485 kts | 27° |
| 2026-05-06 13:14 | 45.24433 | -78.66285 | 24899 ft | 486 kts | 27° |
| 2026-05-06 13:14 | 45.27299 | -78.63745 | 25083 ft | 488 kts | 27° |
| 2026-05-06 13:14 | 45.30196 | -78.61176 | 25270 ft | 491 kts | 27° |
| 2026-05-06 13:14 | 45.33073 | -78.58621 | 25447 ft | 493 kts | 27° |
| 2026-05-06 13:15 | 45.35974 | -78.56040 | 25647 ft | 494 kts | 27° |
| 2026-05-06 13:15 | 45.38912 | -78.53422 | 25908 ft | 494 kts | 27° |
| 2026-05-06 13:15 | 45.41791 | -78.50853 | 26206 ft | 494 kts | 27° |
| 2026-05-06 13:15 | 45.44717 | -78.48240 | 26461 ft | 494 kts | 27° |
| 2026-05-06 13:16 | 45.47613 | -78.45651 | 26708 ft | 494 kts | 27° |
| 2026-05-06 13:16 | 45.50485 | -78.42992 | 26937 ft | 497 kts | 32° |
| 2026-05-06 13:16 | 45.53072 | -78.39590 | 27117 ft | 505 kts | 46° |
| 2026-05-06 13:16 | 45.55044 | -78.35543 | 27359 ft | 506 kts | 60° |
| 2026-05-06 13:17 | 45.56641 | -78.31026 | 27671 ft | 504 kts | 65° |
| 2026-05-06 13:17 | 45.58098 | -78.26567 | 27914 ft | 504 kts | 66° |
| 2026-05-06 13:17 | 45.59569 | -78.22020 | 28127 ft | 505 kts | 66° |
| 2026-05-06 13:17 | 45.61067 | -78.17448 | 28358 ft | 505 kts | 66° |
| 2026-05-06 13:18 | 45.62550 | -78.12969 | 28581 ft | 505 kts | 65° |
| 2026-05-06 13:18 | 45.64057 | -78.08469 | 28815 ft | 504 kts | 65° |
| 2026-05-06 13:18 | 45.65583 | -78.03934 | 29077 ft | 504 kts | 65° |
| 2026-05-06 13:18 | 45.67093 | -77.99451 | 29276 ft | 505 kts | 65° |
| 2026-05-06 13:19 | 45.68631 | -77.94889 | 29464 ft | 505 kts | 65° |
| 2026-05-06 13:19 | 45.70131 | -77.90425 | 29656 ft | 506 kts | 65° |
| 2026-05-06 13:19 | 45.71658 | -77.85877 | 29827 ft | 508 kts | 65° |
| 2026-05-06 13:19 | 45.73171 | -77.81368 | 30002 ft | 508 kts | 65° |
| 2026-05-06 13:20 | 45.74706 | -77.76787 | 30188 ft | 509 kts | 65° |
| 2026-05-06 13:20 | 45.76226 | -77.72234 | 30357 ft | 511 kts | 65° |
| 2026-05-06 13:20 | 45.77762 | -77.67633 | 30516 ft | 512 kts | 65° |
| 2026-05-06 13:20 | 45.79292 | -77.63036 | 30689 ft | 513 kts | 65° |
| 2026-05-06 13:21 | 45.80810 | -77.58464 | 30841 ft | 514 kts | 65° |
| 2026-05-06 13:21 | 45.83907 | -77.49133 | 30841 ft | 516 kts | 65° |
| 2026-05-06 13:22 | 45.86957 | -77.39893 | 30857 ft | 517 kts | 65° |
| 2026-05-06 13:22 | 45.90029 | -77.30563 | 30855 ft | 516 kts | 66° |
| 2026-05-06 13:23 | 45.93068 | -77.21303 | 30850 ft | 516 kts | 66° |
| 2026-05-06 13:23 | 45.96131 | -77.11934 | 30861 ft | 516 kts | 66° |
| 2026-05-06 13:24 | 45.99154 | -77.02651 | 30861 ft | 517 kts | 66° |
| 2026-05-06 13:24 | 46.02201 | -76.93258 | 30851 ft | 517 kts | 66° |
| 2026-05-06 13:25 | 46.05238 | -76.83867 | 30835 ft | 518 kts | 66° |
| 2026-05-06 13:25 | 46.08255 | -76.74501 | 30824 ft | 519 kts | 67° |
| 2026-05-06 13:26 | 46.11275 | -76.65089 | 30820 ft | 520 kts | 67° |
| 2026-05-06 13:26 | 46.14294 | -76.55650 | 30829 ft | 522 kts | 66° |
| 2026-05-06 13:27 | 46.17314 | -76.46163 | 30819 ft | 523 kts | 66° |
| 2026-05-06 13:27 | 46.20335 | -76.36653 | 30820 ft | 523 kts | 66° |
| 2026-05-06 13:28 | 46.23349 | -76.27138 | 30819 ft | 523 kts | 68° |
| 2026-05-06 13:28 | 46.26369 | -76.17545 | 30824 ft | 524 kts | 68° |
| 2026-05-06 13:29 | 46.29361 | -76.08013 | 30822 ft | 523 kts | 68° |
| 2026-05-06 13:29 | 46.32360 | -75.98412 | 30819 ft | 526 kts | 68° |
| 2026-05-06 13:30 | 46.35364 | -75.88787 | 30826 ft | 525 kts | 68° |
| 2026-05-06 13:30 | 46.38370 | -75.79103 | 30824 ft | 526 kts | 68° |
| 2026-05-06 13:31 | 46.41361 | -75.69405 | 30823 ft | 527 kts | 68° |
| 2026-05-06 13:31 | 46.44353 | -75.59699 | 30818 ft | 527 kts | 68° |
| 2026-05-06 13:32 | 46.47313 | -75.50055 | 30822 ft | 528 kts | 68° |
| 2026-05-06 13:32 | 46.50294 | -75.40305 | 30830 ft | 528 kts | 69° |
| 2026-05-06 13:33 | 46.53255 | -75.30579 | 30812 ft | 528 kts | 69° |
| 2026-05-06 13:33 | 46.56243 | -75.20718 | 30820 ft | 529 kts | 69° |
| 2026-05-06 13:34 | 46.59194 | -75.10941 | 30816 ft | 529 kts | 69° |
| 2026-05-06 13:34 | 46.62137 | -75.01186 | 30823 ft | 528 kts | 69° |
| 2026-05-06 13:35 | 46.65062 | -74.91412 | 30816 ft | 527 kts | 69° |
| 2026-05-06 13:35 | 46.67994 | -74.81587 | 30821 ft | 529 kts | 69° |
| 2026-05-06 13:36 | 46.70923 | -74.71741 | 30802 ft | 530 kts | 69° |
| 2026-05-06 13:36 | 46.73844 | -74.61883 | 30802 ft | 530 kts | 69° |
| 2026-05-06 13:37 | 46.76766 | -74.51979 | 30789 ft | 532 kts | 69° |
| 2026-05-06 13:37 | 46.79682 | -74.42057 | 30783 ft | 532 kts | 69° |
| 2026-05-06 13:38 | 46.82605 | -74.32051 | 30783 ft | 534 kts | 69° |
| 2026-05-06 13:38 | 46.85503 | -74.22113 | 30790 ft | 534 kts | 69° |
| 2026-05-06 13:39 | 46.88407 | -74.12110 | 30796 ft | 535 kts | 70° |
| 2026-05-06 13:39 | 46.91309 | -74.02071 | 30800 ft | 536 kts | 69° |
| 2026-05-06 13:40 | 46.94194 | -73.92065 | 30806 ft | 537 kts | 70° |
| 2026-05-06 13:40 | 46.97092 | -73.81952 | 30799 ft | 536 kts | 70° |
| 2026-05-06 13:41 | 46.99950 | -73.71941 | 30797 ft | 537 kts | 69° |
| 2026-05-06 13:41 | 47.02826 | -73.61841 | 30790 ft | 537 kts | 70° |
| 2026-05-06 13:42 | 47.05673 | -73.51782 | 30803 ft | 537 kts | 69° |
| 2026-05-06 13:42 | 47.08528 | -73.41657 | 30805 ft | 537 kts | 70° |
| 2026-05-06 13:43 | 47.11369 | -73.31548 | 30793 ft | 535 kts | 70° |
| 2026-05-06 13:43 | 47.14200 | -73.21435 | 30799 ft | 535 kts | 71° |
| 2026-05-06 13:44 | 47.17018 | -73.11296 | 30791 ft | 535 kts | 70° |
| 2026-05-06 13:44 | 47.19812 | -73.01221 | 30816 ft | 535 kts | 71° |
| 2026-05-06 13:45 | 47.22622 | -72.91043 | 30809 ft | 535 kts | 70° |
| 2026-05-06 13:45 | 47.26801 | -72.75832 | 30800 ft | 534 kts | 71° |
| 2026-05-06 13:46 | 47.29558 | -72.65729 | 30792 ft | 535 kts | 71° |
| 2026-05-06 13:46 | 47.32326 | -72.55537 | 30797 ft | 535 kts | 70° |
| 2026-05-06 13:47 | 47.35066 | -72.45441 | 30803 ft | 534 kts | 71° |
| 2026-05-06 13:47 | 47.37817 | -72.35230 | 30800 ft | 534 kts | 70° |
| 2026-05-06 13:48 | 47.40545 | -72.25092 | 30800 ft | 534 kts | 71° |
| 2026-05-06 13:48 | 47.43284 | -72.14851 | 30800 ft | 535 kts | 71° |
| 2026-05-06 13:49 | 47.45982 | -72.04707 | 30786 ft | 536 kts | 71° |
| 2026-05-06 13:49 | 47.48709 | -71.94416 | 30782 ft | 536 kts | 71° |
| 2026-05-06 13:50 | 47.51414 | -71.84175 | 30770 ft | 536 kts | 71° |
| 2026-05-06 13:50 | 47.54104 | -71.73928 | 30770 ft | 536 kts | 72° |
| 2026-05-06 13:51 | 47.56807 | -71.63584 | 30768 ft | 536 kts | 71° |
| 2026-05-06 13:51 | 47.59507 | -71.53236 | 30763 ft | 536 kts | 71° |
| 2026-05-06 13:52 | 47.62186 | -71.42893 | 30754 ft | 536 kts | 71° |
| 2026-05-06 13:52 | 47.64843 | -71.32589 | 30754 ft | 537 kts | 72° |
| 2026-05-06 13:53 | 47.67501 | -71.22262 | 30752 ft | 536 kts | 72° |
| 2026-05-06 13:53 | 47.70140 | -71.11916 | 30749 ft | 537 kts | 72° |
| 2026-05-06 13:54 | 47.72778 | -71.01570 | 30750 ft | 535 kts | 72° |
| 2026-05-06 13:54 | 47.75404 | -70.91191 | 30753 ft | 537 kts | 72° |
| 2026-05-06 13:55 | 47.78019 | -70.80829 | 30760 ft | 539 kts | 72° |
| 2026-05-06 13:55 | 47.80617 | -70.70488 | 30771 ft | 538 kts | 72° |
| 2026-05-06 13:56 | 47.83212 | -70.60113 | 30774 ft | 537 kts | 72° |
| 2026-05-06 13:56 | 47.85790 | -70.49749 | 30782 ft | 537 kts | 72° |
| 2026-05-06 13:57 | 47.88374 | -70.39323 | 30784 ft | 535 kts | 72° |
| 2026-05-06 13:57 | 47.90927 | -70.28944 | 30792 ft | 536 kts | 73° |
| 2026-05-06 13:58 | 47.93495 | -70.18492 | 30792 ft | 535 kts | 73° |
| 2026-05-06 13:58 | 47.96015 | -70.08170 | 30797 ft | 534 kts | 73° |
| 2026-05-06 13:59 | 47.98556 | -69.97716 | 30803 ft | 535 kts | 73° |
| 2026-05-06 13:59 | 48.01075 | -69.87296 | 30812 ft | 535 kts | 73° |
| 2026-05-06 14:00 | 48.03582 | -69.76869 | 30817 ft | 535 kts | 73° |
| 2026-05-06 14:00 | 48.06094 | -69.66383 | 30817 ft | 535 kts | 72° |
| 2026-05-06 14:01 | 48.08577 | -69.55968 | 30821 ft | 536 kts | 73° |
| 2026-05-06 14:01 | 48.11065 | -69.45483 | 30813 ft | 534 kts | 73° |
| 2026-05-06 14:02 | 48.13539 | -69.34992 | 30811 ft | 536 kts | 73° |
| 2026-05-06 14:02 | 48.16412 | -69.24734 | 30813 ft | 537 kts | 66° |
| 2026-05-06 14:03 | 48.19743 | -69.14750 | 30812 ft | 539 kts | 65° |
| 2026-05-06 14:03 | 48.23087 | -69.04788 | 30809 ft | 539 kts | 65° |
| 2026-05-06 14:04 | 48.26450 | -68.94669 | 30808 ft | 539 kts | 65° |
| 2026-05-06 14:04 | 48.29744 | -68.84659 | 30812 ft | 539 kts | 65° |
| 2026-05-06 14:05 | 48.33064 | -68.74528 | 30808 ft | 540 kts | 65° |
| 2026-05-06 14:05 | 48.36344 | -68.64468 | 30813 ft | 539 kts | 65° |
| 2026-05-06 14:06 | 48.39646 | -68.54319 | 30817 ft | 539 kts | 65° |
| 2026-05-06 14:06 | 48.42916 | -68.44208 | 30825 ft | 539 kts | 64° |
| 2026-05-06 14:07 | 48.46176 | -68.34074 | 30823 ft | 541 kts | 65° |
| 2026-05-06 14:07 | 48.49453 | -68.23892 | 30825 ft | 539 kts | 66° |
| 2026-05-06 14:08 | 48.52716 | -68.13682 | 30829 ft | 540 kts | 66° |
| 2026-05-06 14:08 | 48.55949 | -68.03542 | 30827 ft | 540 kts | 66° |
| 2026-05-06 14:09 | 48.59187 | -67.93329 | 30833 ft | 541 kts | 65° |
| 2026-05-06 14:09 | 48.62424 | -67.83089 | 30831 ft | 540 kts | 66° |
| 2026-05-06 14:10 | 48.65651 | -67.72839 | 30829 ft | 540 kts | 66° |
| 2026-05-06 14:10 | 48.68852 | -67.62619 | 30828 ft | 539 kts | 65° |
| 2026-05-06 14:11 | 48.72043 | -67.52387 | 30830 ft | 540 kts | 66° |
| 2026-05-06 14:11 | 48.75237 | -67.42119 | 30828 ft | 539 kts | 66° |
| 2026-05-06 14:12 | 48.78423 | -67.31823 | 30822 ft | 539 kts | 67° |
| 2026-05-06 14:12 | 48.81591 | -67.21555 | 30825 ft | 540 kts | 66° |
| 2026-05-06 14:13 | 48.84742 | -67.11294 | 30808 ft | 539 kts | 67° |
| 2026-05-06 14:13 | 48.87910 | -67.00923 | 30800 ft | 540 kts | 67° |
| 2026-05-06 14:14 | 48.91065 | -66.90550 | 30813 ft | 540 kts | 67° |
| 2026-05-06 14:14 | 48.94220 | -66.80144 | 30820 ft | 540 kts | 67° |
| 2026-05-06 14:15 | 48.97349 | -66.69769 | 30819 ft | 539 kts | 67° |
| 2026-05-06 14:15 | 49.00487 | -66.59323 | 30823 ft | 541 kts | 67° |
| 2026-05-06 14:16 | 49.03614 | -66.48875 | 30826 ft | 540 kts | 67° |
| 2026-05-06 14:16 | 49.06716 | -66.38456 | 30822 ft | 540 kts | 66° |
| 2026-05-06 14:17 | 49.09806 | -66.28059 | 30811 ft | 540 kts | 67° |
| 2026-05-06 14:17 | 49.12886 | -66.17635 | 30802 ft | 540 kts | 67° |
| 2026-05-06 14:18 | 49.15942 | -66.07243 | 30809 ft | 539 kts | 68° |
| 2026-05-06 14:18 | 49.19009 | -65.96772 | 30805 ft | 538 kts | 68° |
| 2026-05-06 14:19 | 49.22040 | -65.86374 | 30817 ft | 537 kts | 68° |
| 2026-05-06 14:19 | 49.25061 | -65.75979 | 30822 ft | 538 kts | 67° |
| 2026-05-06 14:20 | 49.28078 | -65.65552 | 30821 ft | 537 kts | 68° |
| 2026-05-06 14:20 | 49.31088 | -65.55096 | 30828 ft | 536 kts | 68° |
| 2026-05-06 14:21 | 49.34076 | -65.44670 | 30837 ft | 536 kts | 68° |
| 2026-05-06 14:21 | 49.37064 | -65.34211 | 30833 ft | 536 kts | 69° |
| 2026-05-06 14:22 | 49.40021 | -65.23783 | 30840 ft | 535 kts | 68° |
| 2026-05-06 14:22 | 49.42963 | -65.13387 | 30839 ft | 535 kts | 69° |
| 2026-05-06 14:23 | 49.45903 | -65.02951 | 30836 ft | 535 kts | 68° |
| 2026-05-06 14:23 | 49.48867 | -64.92396 | 30836 ft | 535 kts | 68° |
| 2026-05-06 14:24 | 49.51778 | -64.81977 | 30833 ft | 533 kts | 69° |
| 2026-05-06 14:24 | 49.54686 | -64.71513 | 30836 ft | 534 kts | 68° |
| 2026-05-06 14:25 | 49.57610 | -64.60954 | 30837 ft | 534 kts | 69° |
| 2026-05-06 14:25 | 49.60492 | -64.50487 | 30834 ft | 535 kts | 68° |
| 2026-05-06 14:26 | 49.63384 | -64.39937 | 30838 ft | 536 kts | 69° |
| 2026-05-06 14:26 | 49.66261 | -64.29414 | 30837 ft | 534 kts | 69° |
| 2026-05-06 14:27 | 49.69127 | -64.18857 | 30838 ft | 535 kts | 69° |
| 2026-05-06 14:27 | 49.72004 | -64.08237 | 30838 ft | 534 kts | 70° |
| 2026-05-06 14:28 | 49.74855 | -63.97643 | 30837 ft | 536 kts | 69° |
| 2026-05-06 14:28 | 49.77691 | -63.87059 | 30835 ft | 537 kts | 70° |
| 2026-05-06 14:29 | 49.80524 | -63.76443 | 30837 ft | 536 kts | 70° |
| 2026-05-06 14:29 | 49.83361 | -63.65770 | 30832 ft | 535 kts | 70° |
| 2026-05-06 14:30 | 49.86159 | -63.55188 | 30832 ft | 535 kts | 69° |
| 2026-05-06 14:30 | 49.88969 | -63.44516 | 30829 ft | 536 kts | 69° |
| 2026-05-06 14:31 | 49.91768 | -63.33837 | 30834 ft | 534 kts | 70° |
| 2026-05-06 14:31 | 49.94546 | -63.23194 | 30828 ft | 534 kts | 70° |
| 2026-05-06 14:32 | 49.97296 | -63.12597 | 30836 ft | 532 kts | 70° |
| 2026-05-06 14:32 | 50.00039 | -63.01984 | 30839 ft | 532 kts | 70° |
| 2026-05-06 14:33 | 50.02786 | -62.91313 | 30839 ft | 532 kts | 70° |
| 2026-05-06 14:33 | 50.05499 | -62.80689 | 30846 ft | 532 kts | 70° |
| 2026-05-06 14:34 | 50.08220 | -62.70001 | 30851 ft | 532 kts | 69° |
| 2026-05-06 14:34 | 50.10928 | -62.59326 | 30850 ft | 532 kts | 70° |
| 2026-05-06 14:35 | 50.13633 | -62.48594 | 30853 ft | 533 kts | 70° |
| 2026-05-06 14:35 | 50.16328 | -62.37875 | 30846 ft | 534 kts | 69° |
| 2026-05-06 14:36 | 50.19014 | -62.27128 | 30851 ft | 534 kts | 70° |
| 2026-05-06 14:36 | 50.21691 | -62.16380 | 30843 ft | 535 kts | 70° |
| 2026-05-06 14:37 | 50.24370 | -62.05551 | 30843 ft | 534 kts | 70° |
| 2026-05-06 14:37 | 50.27032 | -61.94731 | 30848 ft | 536 kts | 70° |
| 2026-05-06 14:38 | 50.29705 | -61.83840 | 30848 ft | 535 kts | 71° |
| 2026-05-06 14:38 | 50.32335 | -61.73049 | 30851 ft | 534 kts | 70° |
| 2026-05-06 14:39 | 50.34979 | -61.62155 | 30850 ft | 534 kts | 71° |
| 2026-05-06 14:39 | 50.37585 | -61.51376 | 30842 ft | 532 kts | 71° |
| 2026-05-06 14:40 | 50.40181 | -61.40573 | 30847 ft | 531 kts | 71° |
| 2026-05-06 14:40 | 50.42757 | -61.29786 | 30842 ft | 530 kts | 72° |
| 2026-05-06 14:41 | 50.45332 | -61.18975 | 30844 ft | 530 kts | 72° |
| 2026-05-06 14:41 | 50.47882 | -61.08213 | 30849 ft | 528 kts | 72° |
| 2026-05-06 14:42 | 50.50438 | -60.97368 | 30842 ft | 528 kts | 72° |
| 2026-05-06 14:42 | 50.52961 | -60.86592 | 30846 ft | 529 kts | 72° |
| 2026-05-06 14:43 | 50.55474 | -60.75806 | 30847 ft | 528 kts | 71° |
| 2026-05-06 14:43 | 50.58004 | -60.64906 | 30846 ft | 529 kts | 72° |
| 2026-05-06 14:44 | 50.60522 | -60.54007 | 30853 ft | 530 kts | 71° |
| 2026-05-06 14:45 | 50.64267 | -60.37672 | 30851 ft | 529 kts | 72° |
| 2026-05-06 14:45 | 50.66758 | -60.26761 | 30846 ft | 529 kts | 73° |
| 2026-05-06 14:46 | 50.69225 | -60.15865 | 30853 ft | 530 kts | 73° |
| 2026-05-06 14:46 | 50.71697 | -60.04905 | 30850 ft | 529 kts | 72° |
| 2026-05-06 14:47 | 50.74152 | -59.93954 | 30841 ft | 530 kts | 72° |
| 2026-05-06 14:47 | 50.76611 | -59.82964 | 30843 ft | 530 kts | 73° |
| 2026-05-06 14:48 | 50.79033 | -59.72054 | 30849 ft | 530 kts | 72° |
| 2026-05-06 14:48 | 50.81476 | -59.61010 | 30857 ft | 529 kts | 72° |
| 2026-05-06 14:49 | 50.83886 | -59.50045 | 30859 ft | 528 kts | 73° |
| 2026-05-06 14:49 | 50.86284 | -59.39065 | 30868 ft | 529 kts | 72° |
| 2026-05-06 14:50 | 50.88662 | -59.28131 | 30863 ft | 528 kts | 73° |
| 2026-05-06 14:50 | 50.91048 | -59.17105 | 30866 ft | 527 kts | 73° |
| 2026-05-06 14:51 | 50.93409 | -59.06110 | 30869 ft | 527 kts | 73° |
| 2026-05-06 14:51 | 50.95751 | -58.95160 | 30876 ft | 527 kts | 73° |
| 2026-05-06 14:52 | 50.98078 | -58.84228 | 30882 ft | 527 kts | 73° |
| 2026-05-06 14:52 | 51.00423 | -58.73155 | 30884 ft | 527 kts | 73° |
| 2026-05-06 14:53 | 51.02729 | -58.62186 | 30885 ft | 525 kts | 73° |
| 2026-05-06 14:53 | 51.05029 | -58.51213 | 30887 ft | 525 kts | 73° |
| 2026-05-06 14:54 | 51.07324 | -58.40191 | 30891 ft | 524 kts | 73° |
| 2026-05-06 14:54 | 51.09600 | -58.29200 | 30884 ft | 524 kts | 74° |
| 2026-05-06 14:55 | 51.11866 | -58.18186 | 30877 ft | 523 kts | 74° |
| 2026-05-06 14:55 | 51.14112 | -58.07223 | 30886 ft | 522 kts | 74° |
| 2026-05-06 14:56 | 51.16338 | -57.96285 | 30887 ft | 521 kts | 74° |
| 2026-05-06 14:56 | 51.18544 | -57.85400 | 30887 ft | 521 kts | 74° |
| 2026-05-06 14:57 | 51.20748 | -57.74463 | 30895 ft | 519 kts | 74° |
| 2026-05-06 14:57 | 51.22939 | -57.63526 | 30895 ft | 518 kts | 74° |
| 2026-05-06 14:58 | 51.25113 | -57.52612 | 30896 ft | 518 kts | 74° |
| 2026-05-06 14:58 | 51.27275 | -57.41703 | 30899 ft | 517 kts | 75° |
| 2026-05-06 14:59 | 51.29424 | -57.30788 | 30904 ft | 516 kts | 76° |
| 2026-05-06 14:59 | 51.31549 | -57.19926 | 30910 ft | 515 kts | 76° |
| 2026-05-06 15:00 | 51.33676 | -57.09003 | 30915 ft | 514 kts | 76° |
| 2026-05-06 15:00 | 51.35782 | -56.98114 | 30909 ft | 513 kts | 76° |
| 2026-05-06 15:01 | 51.37875 | -56.87233 | 30918 ft | 513 kts | 76° |
| 2026-05-06 15:01 | 51.39954 | -56.76363 | 30925 ft | 513 kts | 75° |
| 2026-05-06 15:02 | 51.42034 | -56.65431 | 30929 ft | 514 kts | 75° |
| 2026-05-06 15:02 | 51.44108 | -56.54472 | 30927 ft | 514 kts | 75° |
| 2026-05-06 15:03 | 51.46167 | -56.43530 | 30924 ft | 515 kts | 75° |
| 2026-05-06 15:03 | 51.48218 | -56.32556 | 30926 ft | 515 kts | 76° |
| 2026-05-06 15:04 | 51.50249 | -56.21614 | 30928 ft | 515 kts | 75° |
| 2026-05-06 15:04 | 51.52281 | -56.10616 | 30927 ft | 515 kts | 75° |
| 2026-05-06 15:05 | 51.54311 | -55.99567 | 30925 ft | 515 kts | 75° |
| 2026-05-06 15:05 | 51.56321 | -55.88553 | 30923 ft | 516 kts | 75° |
| 2026-05-06 15:06 | 51.58320 | -55.77545 | 30918 ft | 515 kts | 75° |
| 2026-05-06 15:06 | 51.60305 | -55.66535 | 30923 ft | 514 kts | 75° |
| 2026-05-06 15:07 | 51.62299 | -55.55418 | 30922 ft | 513 kts | 75° |
| 2026-05-06 15:07 | 51.64255 | -55.44436 | 30920 ft | 514 kts | 75° |
| 2026-05-06 15:08 | 51.66226 | -55.33305 | 30919 ft | 514 kts | 75° |
| 2026-05-06 15:08 | 51.68176 | -55.22225 | 30923 ft | 513 kts | 75° |
| 2026-05-06 15:09 | 51.70107 | -55.11183 | 30919 ft | 515 kts | 75° |
| 2026-05-06 15:09 | 51.72047 | -55.00008 | 30910 ft | 513 kts | 75° |
| 2026-05-06 15:10 | 51.73952 | -54.88971 | 30912 ft | 512 kts | 75° |
| 2026-05-06 15:10 | 51.75859 | -54.77848 | 30909 ft | 513 kts | 75° |
| 2026-05-06 15:11 | 51.77735 | -54.66817 | 30910 ft | 514 kts | 75° |
| 2026-05-06 15:11 | 51.79695 | -54.55806 | 30909 ft | 514 kts | 71° |
| 2026-05-06 15:12 | 51.82354 | -54.45082 | 30912 ft | 513 kts | 64° |
| 2026-05-06 15:12 | 51.85372 | -54.34732 | 30916 ft | 513 kts | 64° |
| 2026-05-06 15:13 | 51.88426 | -54.24291 | 30911 ft | 514 kts | 64° |
| 2026-05-06 15:13 | 51.91452 | -54.13809 | 30916 ft | 514 kts | 64° |
| 2026-05-06 15:14 | 51.94452 | -54.03333 | 30917 ft | 514 kts | 64° |
| 2026-05-06 15:14 | 51.97431 | -53.92870 | 30920 ft | 513 kts | 63° |
| 2026-05-06 15:15 | 52.00418 | -53.82339 | 30920 ft | 514 kts | 63° |
| 2026-05-06 15:15 | 52.03376 | -53.71864 | 30915 ft | 513 kts | 64° |
| 2026-05-06 15:16 | 52.06338 | -53.61318 | 30921 ft | 511 kts | 64° |
| 2026-05-06 15:16 | 52.09264 | -53.50869 | 30927 ft | 512 kts | 64° |
| 2026-05-06 15:17 | 52.12201 | -53.40318 | 31214 ft | 512 kts | 64° |
| 2026-05-06 15:17 | 52.13655 | -53.35083 | 31542 ft | 510 kts | 64° |
| 2026-05-06 15:17 | 52.15110 | -53.29832 | 31815 ft | 509 kts | 64° |
| 2026-05-06 15:17 | 52.16563 | -53.24573 | 32050 ft | 508 kts | 64° |
| 2026-05-06 15:18 | 52.17994 | -53.19383 | 32244 ft | 508 kts | 64° |
| 2026-05-06 15:18 | 52.19429 | -53.14165 | 32474 ft | 507 kts | 64° |
| 2026-05-06 15:18 | 52.20858 | -53.08953 | 32722 ft | 506 kts | 65° |
| 2026-05-06 15:18 | 52.22302 | -53.03684 | 32959 ft | 505 kts | 65° |
| 2026-05-06 15:19 | 52.23713 | -52.98519 | 33191 ft | 504 kts | 64° |
| 2026-05-06 15:19 | 52.25135 | -52.93294 | 33390 ft | 504 kts | 64° |
| 2026-05-06 15:19 | 52.26550 | -52.88088 | 33592 ft | 503 kts | 64° |
| 2026-05-06 15:19 | 52.27959 | -52.82896 | 33815 ft | 503 kts | 64° |
| 2026-05-06 15:20 | 52.29369 | -52.77693 | 33912 ft | 503 kts | 64° |
| 2026-05-06 15:20 | 52.32164 | -52.67329 | 33931 ft | 501 kts | 64° |
| 2026-05-06 15:21 | 52.34957 | -52.56932 | 33933 ft | 501 kts | 64° |
| 2026-05-06 15:21 | 52.37748 | -52.46508 | 33927 ft | 502 kts | 64° |
| 2026-05-06 15:22 | 52.40521 | -52.36086 | 33939 ft | 502 kts | 64° |
| 2026-05-06 15:22 | 52.43297 | -52.25605 | 33934 ft | 501 kts | 64° |
| 2026-05-06 15:23 | 52.46045 | -52.15186 | 33941 ft | 501 kts | 64° |
| 2026-05-06 15:23 | 52.48779 | -52.04780 | 33940 ft | 501 kts | 64° |
| 2026-05-06 15:24 | 52.51515 | -51.94309 | 33943 ft | 499 kts | 64° |
| 2026-05-06 15:24 | 52.54239 | -51.83834 | 33952 ft | 499 kts | 64° |
| 2026-05-06 15:25 | 52.56942 | -51.73401 | 33946 ft | 499 kts | 64° |
| 2026-05-06 15:25 | 52.59621 | -51.63003 | 33948 ft | 499 kts | 64° |
| 2026-05-06 15:26 | 52.62316 | -51.52501 | 33945 ft | 500 kts | 64° |
| 2026-05-06 15:26 | 52.64988 | -51.42029 | 33954 ft | 499 kts | 64° |
| 2026-05-06 15:27 | 52.67659 | -51.31522 | 33953 ft | 499 kts | 64° |
| 2026-05-06 15:27 | 52.70317 | -51.21023 | 33957 ft | 499 kts | 64° |
| 2026-05-06 15:28 | 52.72976 | -51.10450 | 33952 ft | 498 kts | 64° |
| 2026-05-06 15:28 | 52.75607 | -50.99957 | 33955 ft | 498 kts | 64° |
| 2026-05-06 15:29 | 52.78241 | -50.89385 | 33957 ft | 498 kts | 64° |
| 2026-05-06 15:29 | 52.80861 | -50.78828 | 33961 ft | 498 kts | 64° |
| 2026-05-06 15:30 | 52.83470 | -50.68276 | 33964 ft | 498 kts | 64° |
| 2026-05-06 15:30 | 52.86067 | -50.57710 | 33967 ft | 497 kts | 64° |
| 2026-05-06 15:31 | 52.88640 | -50.47188 | 33962 ft | 498 kts | 64° |
| 2026-05-06 15:31 | 52.91215 | -50.36599 | 33970 ft | 498 kts | 64° |
| 2026-05-06 15:32 | 52.95064 | -50.20687 | 33973 ft | 498 kts | 65° |
| 2026-05-06 15:32 | 52.97613 | -50.10063 | 33975 ft | 498 kts | 65° |
| 2026-05-06 15:33 | 53.00021 | -49.99321 | 33972 ft | 500 kts | 70° |
| 2026-05-06 15:33 | 53.01782 | -49.88220 | 33958 ft | 502 kts | 74° |
| 2026-05-06 15:34 | 53.03365 | -49.76998 | 33966 ft | 501 kts | 74° |
| 2026-05-06 15:34 | 53.04940 | -49.65788 | 33965 ft | 500 kts | 73° |
| 2026-05-06 15:35 | 53.06517 | -49.54567 | 33976 ft | 500 kts | 73° |
| 2026-05-06 15:35 | 53.08092 | -49.43326 | 33984 ft | 500 kts | 73° |
| 2026-05-06 15:36 | 53.09655 | -49.32099 | 33982 ft | 500 kts | 74° |
| 2026-05-06 15:36 | 53.11205 | -49.20872 | 33996 ft | 499 kts | 74° |
| 2026-05-06 15:37 | 53.12742 | -49.09666 | 34001 ft | 500 kts | 73° |
| 2026-05-06 15:37 | 53.14269 | -48.98430 | 34009 ft | 499 kts | 73° |
| 2026-05-06 15:38 | 53.15782 | -48.87227 | 34016 ft | 498 kts | 73° |
| 2026-05-06 15:38 | 53.17292 | -48.75961 | 34021 ft | 498 kts | 73° |
| 2026-05-06 15:39 | 53.18788 | -48.64717 | 34022 ft | 498 kts | 73° |
| 2026-05-06 15:39 | 53.20266 | -48.53503 | 34030 ft | 499 kts | 73° |
| 2026-05-06 15:40 | 53.21738 | -48.42250 | 34027 ft | 498 kts | 73° |
| 2026-05-06 15:40 | 53.23200 | -48.30991 | 34028 ft | 498 kts | 73° |
| 2026-05-06 15:41 | 53.24652 | -48.19736 | 34035 ft | 499 kts | 73° |
| 2026-05-06 15:41 | 53.26091 | -48.08463 | 34035 ft | 498 kts | 73° |
| 2026-05-06 15:42 | 53.27522 | -47.97165 | 34038 ft | 499 kts | 72° |
| 2026-05-06 15:42 | 53.28942 | -47.85880 | 34041 ft | 500 kts | 73° |
| 2026-05-06 15:43 | 53.30353 | -47.74572 | 34039 ft | 500 kts | 72° |
| 2026-05-06 15:43 | 53.31760 | -47.63181 | 34045 ft | 500 kts | 72° |
| 2026-05-06 15:44 | 53.33153 | -47.51806 | 34049 ft | 499 kts | 72° |
| 2026-05-06 15:44 | 53.34532 | -47.40487 | 34051 ft | 501 kts | 72° |
| 2026-05-06 15:45 | 53.35903 | -47.29109 | 34051 ft | 502 kts | 73° |
| 2026-05-06 15:45 | 53.37267 | -47.17680 | 34053 ft | 501 kts | 73° |
| 2026-05-06 15:46 | 53.38628 | -47.06211 | 34057 ft | 501 kts | 73° |
| 2026-05-06 15:46 | 53.39966 | -46.94808 | 34057 ft | 501 kts | 72° |
| 2026-05-06 15:47 | 53.41296 | -46.83408 | 34057 ft | 501 kts | 73° |
| 2026-05-06 15:47 | 53.42616 | -46.71962 | 34058 ft | 500 kts | 72° |
| 2026-05-06 15:48 | 53.43917 | -46.60577 | 34061 ft | 500 kts | 72° |
| 2026-05-06 15:48 | 53.45210 | -46.49168 | 34061 ft | 499 kts | 72° |
| 2026-05-06 15:49 | 53.46492 | -46.37787 | 34066 ft | 499 kts | 72° |
| 2026-05-06 15:49 | 53.47757 | -46.26402 | 34068 ft | 497 kts | 72° |
| 2026-05-06 15:50 | 53.49015 | -46.15034 | 34070 ft | 498 kts | 72° |
| 2026-05-06 15:50 | 53.50245 | -46.03722 | 34068 ft | 494 kts | 72° |
| 2026-05-06 15:51 | 53.51475 | -45.92376 | 34077 ft | 494 kts | 72° |
| 2026-05-06 15:51 | 53.52691 | -45.81059 | 34077 ft | 494 kts | 71° |
| 2026-05-06 15:52 | 53.53888 | -45.69807 | 34079 ft | 494 kts | 71° |
| 2026-05-06 15:52 | 53.55082 | -45.58453 | 34085 ft | 493 kts | 71° |
| 2026-05-06 15:53 | 53.56260 | -45.47145 | 34085 ft | 490 kts | 71° |
| 2026-05-06 15:53 | 53.57422 | -45.35907 | 34091 ft | 490 kts | 71° |
| 2026-05-06 15:54 | 53.58573 | -45.24645 | 34090 ft | 490 kts | 72° |
| 2026-05-06 15:54 | 53.59714 | -45.13374 | 34095 ft | 488 kts | 71° |
| 2026-05-06 15:55 | 53.60840 | -45.02195 | 34094 ft | 490 kts | 71° |
| 2026-05-06 15:55 | 53.61962 | -44.90895 | 34099 ft | 489 kts | 71° |
| 2026-05-06 15:56 | 53.63059 | -44.79709 | 34102 ft | 487 kts | 71° |
| 2026-05-06 15:56 | 53.64163 | -44.68416 | 34102 ft | 489 kts | 71° |
| 2026-05-06 15:57 | 53.65238 | -44.57219 | 34102 ft | 487 kts | 71° |
| 2026-05-06 15:57 | 53.66318 | -44.45903 | 34101 ft | 487 kts | 71° |
| 2026-05-06 15:58 | 53.67370 | -44.34716 | 34101 ft | 485 kts | 72° |
| 2026-05-06 15:58 | 53.68423 | -44.23510 | 34099 ft | 487 kts | 71° |
| 2026-05-06 15:59 | 53.69451 | -44.12338 | 34098 ft | 484 kts | 71° |
| 2026-05-06 15:59 | 53.70475 | -44.01155 | 34101 ft | 484 kts | 71° |
| 2026-05-06 16:00 | 53.71497 | -43.89896 | 34092 ft | 485 kts | 71° |
| 2026-05-06 16:00 | 53.72493 | -43.78741 | 34099 ft | 484 kts | 71° |
| 2026-05-06 16:01 | 53.73492 | -43.67473 | 34097 ft | 485 kts | 71° |
| 2026-05-06 16:01 | 53.74472 | -43.56291 | 34097 ft | 485 kts | 71° |
| 2026-05-06 16:02 | 53.75451 | -43.44998 | 34095 ft | 486 kts | 71° |
| 2026-05-06 16:02 | 53.76402 | -43.33851 | 34086 ft | 483 kts | 72° |
| 2026-05-06 16:03 | 53.77365 | -43.22538 | 34087 ft | 487 kts | 72° |
| 2026-05-06 16:03 | 53.78308 | -43.11261 | 34089 ft | 488 kts | 72° |
| 2026-05-06 16:04 | 53.79242 | -42.99925 | 34082 ft | 487 kts | 72° |
| 2026-05-06 16:04 | 53.80162 | -42.88665 | 34079 ft | 487 kts | 72° |
| 2026-05-06 16:05 | 53.81078 | -42.77313 | 34082 ft | 487 kts | 72° |
| 2026-05-06 16:05 | 53.81978 | -42.66011 | 34092 ft | 486 kts | 72° |
| 2026-05-06 16:06 | 53.82870 | -42.54694 | 34091 ft | 487 kts | 72° |
| 2026-05-06 16:06 | 53.83749 | -42.43389 | 34094 ft | 485 kts | 72° |
| 2026-05-06 16:07 | 53.84613 | -42.32143 | 34085 ft | 485 kts | 73° |
| 2026-05-06 16:07 | 53.85474 | -42.20827 | 34091 ft | 487 kts | 73° |
| 2026-05-06 16:08 | 53.86324 | -42.09487 | 34075 ft | 488 kts | 73° |
| 2026-05-06 16:08 | 53.87162 | -41.98141 | 34075 ft | 488 kts | 73° |
| 2026-05-06 16:09 | 53.87985 | -41.86810 | 34083 ft | 485 kts | 73° |
| 2026-05-06 16:09 | 53.88802 | -41.75521 | 34074 ft | 487 kts | 74° |
| 2026-05-06 16:10 | 53.89607 | -41.64162 | 34072 ft | 484 kts | 74° |
| 2026-05-06 16:10 | 53.90403 | -41.52823 | 34078 ft | 485 kts | 74° |
| 2026-05-06 16:11 | 53.91179 | -41.41567 | 34071 ft | 482 kts | 75° |
| 2026-05-06 16:11 | 53.91948 | -41.30263 | 34065 ft | 481 kts | 76° |
| 2026-05-06 16:12 | 53.92700 | -41.19030 | 34058 ft | 481 kts | 76° |
| 2026-05-06 16:12 | 53.93443 | -41.07809 | 34047 ft | 479 kts | 76° |
| 2026-05-06 16:13 | 53.94175 | -40.96619 | 34078 ft | 479 kts | 76° |
| 2026-05-06 16:13 | 53.94886 | -40.85512 | 34087 ft | 476 kts | 76° |
| 2026-05-06 16:14 | 53.95598 | -40.74301 | 34073 ft | 476 kts | 77° |
| 2026-05-06 16:14 | 53.96292 | -40.63168 | 34094 ft | 478 kts | 77° |
| 2026-05-06 16:15 | 53.96977 | -40.51971 | 34082 ft | 478 kts | 77° |
| 2026-05-06 16:15 | 53.97650 | -40.40845 | 34085 ft | 476 kts | 77° |
| 2026-05-06 16:16 | 53.98308 | -40.29733 | 34093 ft | 475 kts | 78° |
| 2026-05-06 16:16 | 53.98961 | -40.18568 | 34084 ft | 477 kts | 79° |
| 2026-05-06 16:17 | 53.99598 | -40.07386 | 34075 ft | 476 kts | 79° |
| 2026-05-06 16:17 | 54.00571 | -39.96335 | 34087 ft | 472 kts | 72° |
| 2026-05-06 16:18 | 54.02061 | -39.85642 | 34094 ft | 469 kts | 70° |
| 2026-05-06 16:18 | 54.03627 | -39.74846 | 34086 ft | 469 kts | 70° |
| 2026-05-06 16:19 | 54.05153 | -39.64154 | 34086 ft | 468 kts | 71° |
| 2026-05-06 16:19 | 54.06664 | -39.53440 | 34080 ft | 467 kts | 71° |
| 2026-05-06 16:20 | 54.08164 | -39.42710 | 34090 ft | 466 kts | 71° |
| 2026-05-06 16:20 | 54.09648 | -39.32026 | 34079 ft | 465 kts | 72° |
| 2026-05-06 16:21 | 54.11129 | -39.21279 | 34089 ft | 465 kts | 72° |
| 2026-05-06 16:21 | 54.12588 | -39.10630 | 34088 ft | 465 kts | 72° |
| 2026-05-06 16:22 | 54.14039 | -38.99937 | 34111 ft | 465 kts | 72° |
| 2026-05-06 16:22 | 54.15481 | -38.89234 | 34117 ft | 465 kts | 72° |
| 2026-05-06 16:23 | 54.16916 | -38.78518 | 34108 ft | 463 kts | 72° |
| 2026-05-06 16:23 | 54.18332 | -38.67867 | 34107 ft | 462 kts | 72° |
| 2026-05-06 16:24 | 54.19738 | -38.57205 | 34100 ft | 462 kts | 72° |
| 2026-05-06 16:24 | 54.21144 | -38.46486 | 34103 ft | 462 kts | 73° |
| 2026-05-06 16:25 | 54.22520 | -38.35901 | 34105 ft | 461 kts | 73° |
| 2026-05-06 16:25 | 54.23899 | -38.25213 | 34099 ft | 462 kts | 74° |
| 2026-05-06 16:26 | 54.25269 | -38.14510 | 34103 ft | 462 kts | 74° |
| 2026-05-06 16:26 | 54.26630 | -38.03803 | 34105 ft | 462 kts | 74° |
| 2026-05-06 16:27 | 54.27980 | -37.93098 | 34108 ft | 462 kts | 74° |
| 2026-05-06 16:27 | 54.29317 | -37.82408 | 34104 ft | 461 kts | 74° |
| 2026-05-06 16:28 | 54.30647 | -37.71704 | 34108 ft | 460 kts | 74° |
| 2026-05-06 16:28 | 54.31966 | -37.60993 | 34104 ft | 460 kts | 74° |
| 2026-05-06 16:29 | 54.33279 | -37.50266 | 34112 ft | 459 kts | 75° |
| 2026-05-06 16:29 | 54.34573 | -37.39598 | 34101 ft | 459 kts | 75° |
| 2026-05-06 16:30 | 54.35636 | -37.30769 | 34105 ft | 459 kts | 76° |
| 2026-05-06 16:30 | 54.37134 | -37.18226 | 34105 ft | 458 kts | 76° |
| 2026-05-06 16:31 | 54.38392 | -37.07603 | 34103 ft | 457 kts | 76° |
| 2026-05-06 16:31 | 54.39640 | -36.96984 | 34098 ft | 457 kts | 76° |
| 2026-05-06 16:32 | 54.40882 | -36.86324 | 34099 ft | 457 kts | 76° |
| 2026-05-06 16:32 | 54.42115 | -36.75658 | 34094 ft | 457 kts | 76° |
| 2026-05-06 16:33 | 54.43339 | -36.64975 | 34089 ft | 457 kts | 76° |
| 2026-05-06 16:34 | 54.45155 | -36.48960 | 34086 ft | 456 kts | 76° |
| 2026-05-06 16:34 | 54.46354 | -36.38288 | 34091 ft | 455 kts | 76° |
| 2026-05-06 16:35 | 54.47533 | -36.27688 | 34089 ft | 455 kts | 77° |
| 2026-05-06 16:35 | 54.48706 | -36.17067 | 34078 ft | 454 kts | 77° |
| 2026-05-06 16:36 | 54.49875 | -36.06385 | 34085 ft | 454 kts | 77° |
| 2026-05-06 16:36 | 54.51027 | -35.95763 | 34087 ft | 454 kts | 77° |
| 2026-05-06 16:37 | 54.52179 | -35.85057 | 34085 ft | 454 kts | 77° |
| 2026-05-06 16:37 | 54.53310 | -35.74442 | 34073 ft | 454 kts | 77° |
| 2026-05-06 16:38 | 54.54433 | -35.63805 | 34077 ft | 454 kts | 77° |
| 2026-05-06 16:38 | 54.55549 | -35.53162 | 34082 ft | 452 kts | 77° |
| 2026-05-06 16:39 | 54.56650 | -35.42558 | 34077 ft | 451 kts | 77° |
| 2026-05-06 16:39 | 54.57745 | -35.31916 | 34060 ft | 451 kts | 78° |
| 2026-05-06 16:40 | 54.58825 | -35.21323 | 34070 ft | 452 kts | 78° |
| 2026-05-06 16:40 | 54.59896 | -35.10712 | 34062 ft | 451 kts | 78° |
| 2026-05-06 16:41 | 54.60961 | -35.00055 | 34063 ft | 451 kts | 78° |
| 2026-05-06 16:41 | 54.62014 | -34.89444 | 34060 ft | 451 kts | 78° |
| 2026-05-06 16:42 | 54.63059 | -34.78817 | 34067 ft | 450 kts | 79° |
| 2026-05-06 16:42 | 54.64085 | -34.68272 | 34061 ft | 449 kts | 78° |
| 2026-05-06 16:43 | 54.65105 | -34.57692 | 34057 ft | 449 kts | 79° |
| 2026-05-06 16:43 | 54.66117 | -34.47081 | 34057 ft | 449 kts | 79° |
| 2026-05-06 16:44 | 54.67123 | -34.36439 | 34057 ft | 449 kts | 79° |
| 2026-05-06 16:44 | 54.68115 | -34.25849 | 34059 ft | 448 kts | 79° |
| 2026-05-06 16:45 | 54.69095 | -34.15278 | 34048 ft | 448 kts | 79° |
| 2026-05-06 16:45 | 54.70063 | -34.04731 | 34059 ft | 448 kts | 79° |
| 2026-05-06 16:46 | 54.71028 | -33.94112 | 34066 ft | 448 kts | 79° |
| 2026-05-06 16:46 | 54.71981 | -33.83518 | 34058 ft | 447 kts | 80° |
| 2026-05-06 16:47 | 54.72927 | -33.72900 | 34077 ft | 447 kts | 80° |
| 2026-05-06 16:47 | 54.73856 | -33.62371 | 34048 ft | 447 kts | 80° |
| 2026-05-06 16:48 | 54.74783 | -33.51743 | 34070 ft | 447 kts | 80° |
| 2026-05-06 16:48 | 54.75697 | -33.41149 | 34054 ft | 447 kts | 80° |
| 2026-05-06 16:49 | 54.76601 | -33.30564 | 34050 ft | 447 kts | 81° |
| 2026-05-06 16:49 | 54.77498 | -33.19930 | 34071 ft | 447 kts | 81° |
| 2026-05-06 16:50 | 54.78384 | -33.09333 | 34065 ft | 447 kts | 81° |
| 2026-05-06 16:50 | 54.79259 | -32.98747 | 34053 ft | 447 kts | 81° |
| 2026-05-06 16:51 | 54.80132 | -32.88087 | 34067 ft | 447 kts | 81° |
| 2026-05-06 16:51 | 54.80994 | -32.77436 | 34068 ft | 448 kts | 81° |
| 2026-05-06 16:52 | 54.81846 | -32.66764 | 34062 ft | 448 kts | 81° |
| 2026-05-06 16:52 | 54.82686 | -32.56132 | 34063 ft | 447 kts | 81° |
| 2026-05-06 16:53 | 54.83518 | -32.45483 | 34046 ft | 447 kts | 81° |
| 2026-05-06 16:53 | 54.84342 | -32.34818 | 34048 ft | 448 kts | 82° |
| 2026-05-06 16:54 | 54.85159 | -32.24107 | 34055 ft | 448 kts | 82° |
| 2026-05-06 16:54 | 54.85963 | -32.13451 | 34061 ft | 448 kts | 82° |
| 2026-05-06 16:55 | 54.86756 | -32.02810 | 34045 ft | 449 kts | 82° |
| 2026-05-06 16:55 | 54.87544 | -31.92093 | 34050 ft | 449 kts | 82° |
| 2026-05-06 16:56 | 54.88325 | -31.81354 | 34051 ft | 450 kts | 82° |
| 2026-05-06 16:56 | 54.89093 | -31.70652 | 34054 ft | 450 kts | 82° |
| 2026-05-06 16:57 | 54.89858 | -31.59852 | 34043 ft | 451 kts | 82° |
| 2026-05-06 16:57 | 54.90610 | -31.49104 | 34038 ft | 451 kts | 82° |
| 2026-05-06 16:58 | 54.91353 | -31.38340 | 34035 ft | 452 kts | 82° |
| 2026-05-06 16:58 | 54.92090 | -31.27524 | 34055 ft | 452 kts | 83° |
| 2026-05-06 16:59 | 54.92816 | -31.16736 | 34042 ft | 452 kts | 83° |
| 2026-05-06 16:59 | 54.93536 | -31.05882 | 34042 ft | 453 kts | 83° |
| 2026-05-06 17:00 | 54.94244 | -30.95032 | 34031 ft | 453 kts | 83° |
| 2026-05-06 17:00 | 54.94944 | -30.84158 | 34038 ft | 453 kts | 83° |
| 2026-05-06 17:01 | 54.95629 | -30.73357 | 34048 ft | 454 kts | 83° |
| 2026-05-06 17:01 | 54.96312 | -30.62460 | 34040 ft | 454 kts | 83° |
| 2026-05-06 17:02 | 54.96984 | -30.51573 | 34036 ft | 455 kts | 83° |
| 2026-05-06 17:02 | 54.97648 | -30.40628 | 34043 ft | 456 kts | 83° |
| 2026-05-06 17:03 | 54.98301 | -30.29684 | 34032 ft | 456 kts | 84° |
| 2026-05-06 17:03 | 54.98940 | -30.18798 | 34039 ft | 456 kts | 84° |
| 2026-05-06 17:04 | 54.99571 | -30.07866 | 34041 ft | 456 kts | 84° |
| 2026-05-06 17:04 | 55.00506 | -29.96962 | 34039 ft | 457 kts | 78° |
| 2026-05-06 17:05 | 55.01981 | -29.86228 | 34046 ft | 458 kts | 76° |
| 2026-05-06 17:05 | 55.03524 | -29.75511 | 34050 ft | 458 kts | 76° |
| 2026-05-06 17:06 | 55.05056 | -29.64746 | 34049 ft | 458 kts | 76° |
| 2026-05-06 17:06 | 55.06566 | -29.54015 | 34052 ft | 458 kts | 76° |
| 2026-05-06 17:07 | 55.08068 | -29.43261 | 34053 ft | 458 kts | 76° |
| 2026-05-06 17:07 | 55.09560 | -29.32497 | 34047 ft | 458 kts | 77° |
| 2026-05-06 17:08 | 55.11035 | -29.21767 | 34056 ft | 458 kts | 77° |
| 2026-05-06 17:08 | 55.12508 | -29.10983 | 34056 ft | 459 kts | 77° |
| 2026-05-06 17:09 | 55.13982 | -29.00104 | 34051 ft | 460 kts | 77° |
| 2026-05-06 17:09 | 55.15435 | -28.89310 | 34046 ft | 460 kts | 77° |
| 2026-05-06 17:10 | 55.16889 | -28.78420 | 34048 ft | 461 kts | 77° |
| 2026-05-06 17:10 | 55.18329 | -28.67554 | 34047 ft | 462 kts | 77° |
| 2026-05-06 17:11 | 55.19775 | -28.56566 | 34050 ft | 462 kts | 77° |
| 2026-05-06 17:11 | 55.21200 | -28.45654 | 34048 ft | 462 kts | 77° |
| 2026-05-06 17:12 | 55.22612 | -28.34761 | 34057 ft | 463 kts | 78° |
| 2026-05-06 17:12 | 55.24019 | -28.23834 | 34047 ft | 463 kts | 78° |
| 2026-05-06 17:13 | 55.25426 | -28.12807 | 34051 ft | 463 kts | 78° |
| 2026-05-06 17:13 | 55.26809 | -28.01891 | 34052 ft | 464 kts | 78° |
| 2026-05-06 17:14 | 55.28200 | -27.90824 | 34053 ft | 464 kts | 78° |
| 2026-05-06 17:14 | 55.29573 | -27.79813 | 34057 ft | 465 kts | 78° |
| 2026-05-06 17:15 | 55.30939 | -27.68760 | 34048 ft | 465 kts | 78° |
| 2026-05-06 17:15 | 55.32290 | -27.57755 | 34051 ft | 466 kts | 78° |
| 2026-05-06 17:16 | 55.33643 | -27.46645 | 34062 ft | 466 kts | 78° |
| 2026-05-06 17:16 | 55.34985 | -27.35536 | 34059 ft | 466 kts | 78° |
| 2026-05-06 17:17 | 55.36307 | -27.24496 | 34047 ft | 466 kts | 79° |
| 2026-05-06 17:17 | 55.37631 | -27.13345 | 34042 ft | 466 kts | 79° |
| 2026-05-06 17:18 | 55.38937 | -27.02245 | 34050 ft | 467 kts | 79° |
| 2026-05-06 17:18 | 55.40245 | -26.91055 | 34051 ft | 468 kts | 79° |
| 2026-05-06 17:19 | 55.41534 | -26.79920 | 34040 ft | 469 kts | 79° |
| 2026-05-06 17:19 | 55.42821 | -26.68712 | 34036 ft | 469 kts | 79° |
| 2026-05-06 17:20 | 55.44101 | -26.57464 | 34038 ft | 469 kts | 79° |
| 2026-05-06 17:20 | 55.45365 | -26.46260 | 34033 ft | 469 kts | 79° |
| 2026-05-06 17:21 | 55.46624 | -26.35010 | 34044 ft | 469 kts | 80° |
| 2026-05-06 17:21 | 55.47870 | -26.23778 | 34034 ft | 469 kts | 81° |
| 2026-05-06 17:22 | 55.49102 | -26.12568 | 34030 ft | 470 kts | 81° |
| 2026-05-06 17:22 | 55.50326 | -26.01319 | 34025 ft | 471 kts | 81° |
| 2026-05-06 17:23 | 55.51546 | -25.90014 | 34027 ft | 471 kts | 81° |
| 2026-05-06 17:23 | 55.52753 | -25.78709 | 34029 ft | 472 kts | 81° |
| 2026-05-06 17:24 | 55.53954 | -25.67392 | 34030 ft | 472 kts | 81° |
| 2026-05-06 17:24 | 55.55146 | -25.56038 | 34025 ft | 472 kts | 81° |
| 2026-05-06 17:25 | 55.56327 | -25.44665 | 34026 ft | 473 kts | 81° |
| 2026-05-06 17:25 | 55.57502 | -25.33260 | 34028 ft | 473 kts | 82° |
| 2026-05-06 17:26 | 55.58667 | -25.21843 | 34023 ft | 473 kts | 82° |
| 2026-05-06 17:26 | 55.59812 | -25.10504 | 34019 ft | 474 kts | 82° |
| 2026-05-06 17:27 | 55.60960 | -24.99030 | 34013 ft | 475 kts | 82° |
| 2026-05-06 17:27 | 55.62092 | -24.87594 | 34014 ft | 475 kts | 82° |
| 2026-05-06 17:28 | 55.63221 | -24.76089 | 34016 ft | 475 kts | 82° |
| 2026-05-06 17:28 | 55.64333 | -24.64617 | 34010 ft | 476 kts | 82° |
| 2026-05-06 17:29 | 55.65442 | -24.53079 | 34006 ft | 477 kts | 82° |
| 2026-05-06 17:29 | 55.66537 | -24.41564 | 34005 ft | 477 kts | 82° |
| 2026-05-06 17:30 | 55.67627 | -24.29981 | 34006 ft | 477 kts | 83° |
| 2026-05-06 17:30 | 55.68703 | -24.18424 | 34005 ft | 477 kts | 83° |
| 2026-05-06 17:31 | 55.69763 | -24.06899 | 33999 ft | 478 kts | 83° |
| 2026-05-06 17:31 | 55.70821 | -23.95281 | 33990 ft | 479 kts | 83° |
| 2026-05-06 17:32 | 55.71869 | -23.83634 | 33994 ft | 480 kts | 83° |
| 2026-05-06 17:32 | 55.72907 | -23.71995 | 33992 ft | 480 kts | 83° |
| 2026-05-06 17:33 | 55.73931 | -23.60363 | 33986 ft | 480 kts | 83° |
| 2026-05-06 17:33 | 55.74950 | -23.48683 | 33980 ft | 481 kts | 83° |
| 2026-05-06 17:34 | 55.75954 | -23.37023 | 33980 ft | 480 kts | 83° |
| 2026-05-06 17:34 | 55.76947 | -23.25363 | 33977 ft | 481 kts | 84° |
| 2026-05-06 17:35 | 55.77928 | -23.13714 | 33979 ft | 482 kts | 84° |
| 2026-05-06 17:35 | 55.78903 | -23.01981 | 33974 ft | 481 kts | 84° |
| 2026-05-06 17:36 | 55.80342 | -22.84398 | 33968 ft | 483 kts | 84° |
| 2026-05-06 17:36 | 55.81293 | -22.72611 | 33960 ft | 483 kts | 84° |
| 2026-05-06 17:37 | 55.82235 | -22.60806 | 33957 ft | 484 kts | 84° |
| 2026-05-06 17:37 | 55.83160 | -22.49046 | 33951 ft | 484 kts | 84° |
| 2026-05-06 17:38 | 55.84079 | -22.37213 | 33948 ft | 485 kts | 84° |
| 2026-05-06 17:38 | 55.84986 | -22.25392 | 33940 ft | 485 kts | 85° |
| 2026-05-06 17:39 | 55.85883 | -22.13543 | 33944 ft | 486 kts | 85° |
| 2026-05-06 17:39 | 55.86757 | -22.01839 | 33933 ft | 487 kts | 85° |
| 2026-05-06 17:40 | 55.87637 | -21.89916 | 33939 ft | 487 kts | 85° |
| 2026-05-06 17:40 | 55.88498 | -21.78055 | 33936 ft | 486 kts | 85° |
| 2026-05-06 17:41 | 55.89352 | -21.66168 | 33929 ft | 487 kts | 85° |
| 2026-05-06 17:41 | 55.90196 | -21.54240 | 33928 ft | 487 kts | 85° |
| 2026-05-06 17:42 | 55.91031 | -21.42270 | 33925 ft | 487 kts | 85° |
| 2026-05-06 17:42 | 55.91848 | -21.30385 | 33922 ft | 488 kts | 86° |
| 2026-05-06 17:43 | 55.92659 | -21.18404 | 33917 ft | 487 kts | 86° |
| 2026-05-06 17:43 | 55.93454 | -21.06478 | 33918 ft | 487 kts | 86° |
| 2026-05-06 17:44 | 55.94244 | -20.94470 | 33917 ft | 487 kts | 86° |
| 2026-05-06 17:44 | 55.95013 | -20.82594 | 33912 ft | 488 kts | 86° |
| 2026-05-06 17:45 | 55.95774 | -20.70610 | 33908 ft | 489 kts | 85° |
| 2026-05-06 17:45 | 55.96526 | -20.58626 | 33906 ft | 488 kts | 85° |
| 2026-05-06 17:46 | 55.97266 | -20.46645 | 33896 ft | 487 kts | 85° |
| 2026-05-06 17:46 | 55.97995 | -20.34620 | 33888 ft | 488 kts | 86° |
| 2026-05-06 17:47 | 55.98706 | -20.22695 | 33886 ft | 488 kts | 86° |
| 2026-05-06 17:47 | 55.99408 | -20.10659 | 33877 ft | 488 kts | 86° |
| 2026-05-06 17:48 | 56.00046 | -19.98631 | 33874 ft | 488 kts | 89° |
| 2026-05-06 17:48 | 56.00322 | -19.86647 | 33880 ft | 486 kts | 90° |
| 2026-05-06 17:49 | 56.00536 | -19.74629 | 33874 ft | 487 kts | 90° |
| 2026-05-06 17:49 | 56.00744 | -19.62517 | 33871 ft | 487 kts | 90° |
| 2026-05-06 17:50 | 56.00941 | -19.50507 | 33864 ft | 487 kts | 90° |
| 2026-05-06 17:50 | 56.01129 | -19.38483 | 33864 ft | 489 kts | 90° |
| 2026-05-06 17:51 | 56.01310 | -19.26383 | 33857 ft | 488 kts | 91° |
| 2026-05-06 17:51 | 56.01478 | -19.14313 | 33865 ft | 487 kts | 91° |
| 2026-05-06 17:52 | 56.01630 | -19.02300 | 33862 ft | 487 kts | 91° |
| 2026-05-06 17:52 | 56.01771 | -18.90243 | 33850 ft | 487 kts | 91° |
| 2026-05-06 17:53 | 56.01902 | -18.78234 | 33840 ft | 487 kts | 90° |
| 2026-05-06 17:53 | 56.02022 | -18.66102 | 33834 ft | 487 kts | 90° |
| 2026-05-06 17:54 | 56.02129 | -18.54059 | 33831 ft | 487 kts | 90° |
| 2026-05-06 17:54 | 56.02225 | -18.42084 | 33826 ft | 488 kts | 90° |
| 2026-05-06 17:55 | 56.02311 | -18.29943 | 33826 ft | 488 kts | 91° |
| 2026-05-06 17:55 | 56.02383 | -18.17940 | 33827 ft | 489 kts | 91° |
| 2026-05-06 17:56 | 56.02442 | -18.05739 | 33828 ft | 490 kts | 91° |
| 2026-05-06 17:56 | 56.02488 | -17.93636 | 33822 ft | 490 kts | 91° |
| 2026-05-06 17:57 | 56.02527 | -17.81528 | 33824 ft | 490 kts | 91° |
| 2026-05-06 17:57 | 56.02552 | -17.69356 | 33824 ft | 490 kts | 91° |
| 2026-05-06 17:58 | 56.02565 | -17.57270 | 33828 ft | 489 kts | 91° |
| 2026-05-06 17:58 | 56.02565 | -17.45165 | 33841 ft | 489 kts | 91° |
| 2026-05-06 17:59 | 56.02556 | -17.33044 | 33832 ft | 489 kts | 92° |
| 2026-05-06 17:59 | 56.02534 | -17.20939 | 33832 ft | 489 kts | 92° |
| 2026-05-06 18:00 | 56.02498 | -17.08845 | 33832 ft | 489 kts | 92° |
| 2026-05-06 18:00 | 56.02452 | -16.96734 | 33830 ft | 489 kts | 91° |
| 2026-05-06 18:01 | 56.02393 | -16.84613 | 33825 ft | 490 kts | 91° |
| 2026-05-06 18:01 | 56.02322 | -16.72457 | 33822 ft | 492 kts | 91° |
| 2026-05-06 18:02 | 56.02240 | -16.60260 | 33820 ft | 492 kts | 91° |
| 2026-05-06 18:02 | 56.02146 | -16.48050 | 33819 ft | 492 kts | 91° |
| 2026-05-06 18:03 | 56.02039 | -16.35920 | 33815 ft | 492 kts | 91° |
| 2026-05-06 18:03 | 56.01922 | -16.23732 | 33812 ft | 493 kts | 92° |
| 2026-05-06 18:04 | 56.01790 | -16.11484 | 33814 ft | 493 kts | 92° |
| 2026-05-06 18:04 | 56.01646 | -15.99298 | 33812 ft | 493 kts | 92° |
| 2026-05-06 18:05 | 56.01490 | -15.87081 | 33814 ft | 493 kts | 92° |
| 2026-05-06 18:05 | 56.01324 | -15.74931 | 33817 ft | 493 kts | 92° |
| 2026-05-06 18:06 | 56.01144 | -15.62695 | 33819 ft | 493 kts | 92° |
| 2026-05-06 18:06 | 56.00953 | -15.50554 | 33819 ft | 493 kts | 92° |
| 2026-05-06 18:07 | 56.00748 | -15.38349 | 33819 ft | 492 kts | 91° |
| 2026-05-06 18:07 | 56.00532 | -15.26247 | 33813 ft | 491 kts | 92° |
| 2026-05-06 18:08 | 56.00303 | -15.14127 | 33813 ft | 491 kts | 92° |
| 2026-05-06 18:08 | 56.00061 | -15.01931 | 33816 ft | 491 kts | 92° |
| 2026-05-06 18:09 | 56.00047 | -14.89749 | 33814 ft | 492 kts | 89° |
| 2026-05-06 18:09 | 56.00097 | -14.77653 | 33818 ft | 492 kts | 89° |
| 2026-05-06 18:10 | 56.00124 | -14.65483 | 33817 ft | 492 kts | 89° |
| 2026-05-06 18:10 | 56.00133 | -14.53271 | 33830 ft | 491 kts | 89° |
| 2026-05-06 18:11 | 56.00131 | -14.41137 | 33832 ft | 492 kts | 89° |
| 2026-05-06 18:11 | 56.00115 | -14.28941 | 33830 ft | 493 kts | 90° |
| 2026-05-06 18:12 | 56.00085 | -14.16720 | 33825 ft | 493 kts | 90° |
| 2026-05-06 18:12 | 56.00041 | -14.04564 | 33828 ft | 493 kts | 90° |
| 2026-05-06 18:13 | 56.00131 | -13.92355 | 33831 ft | 492 kts | 87° |
| 2026-05-06 18:13 | 56.00328 | -13.80245 | 33840 ft | 491 kts | 87° |
| 2026-05-06 18:14 | 56.00511 | -13.68034 | 33840 ft | 491 kts | 87° |
| 2026-05-06 18:14 | 56.00675 | -13.55926 | 33838 ft | 491 kts | 87° |
| 2026-05-06 18:15 | 56.00824 | -13.43758 | 33843 ft | 491 kts | 87° |
| 2026-05-06 18:15 | 56.00960 | -13.31645 | 33845 ft | 491 kts | 88° |
| 2026-05-06 18:16 | 56.01084 | -13.19526 | 33848 ft | 491 kts | 88° |
| 2026-05-06 18:16 | 56.01195 | -13.07294 | 33850 ft | 492 kts | 88° |
| 2026-05-06 18:17 | 56.01295 | -12.95100 | 33852 ft | 493 kts | 88° |
| 2026-05-06 18:17 | 56.01382 | -12.82975 | 33855 ft | 493 kts | 88° |
| 2026-05-06 18:18 | 56.01457 | -12.70780 | 33859 ft | 493 kts | 88° |
| 2026-05-06 18:18 | 56.01522 | -12.58588 | 33862 ft | 492 kts | 88° |
| 2026-05-06 18:19 | 56.01574 | -12.46344 | 34164 ft | 494 kts | 88° |
| 2026-05-06 18:19 | 56.01595 | -12.40220 | 34485 ft | 491 kts | 87° |
| 2026-05-06 18:19 | 56.01612 | -12.34225 | 34763 ft | 490 kts | 88° |
| 2026-05-06 18:20 | 56.01640 | -12.22075 | 34860 ft | 490 kts | 88° |
| 2026-05-06 18:20 | 56.01654 | -12.09952 | 34865 ft | 490 kts | 88° |
| 2026-05-06 18:21 | 56.01659 | -11.97855 | 34870 ft | 490 kts | 88° |
| 2026-05-06 18:21 | 56.01653 | -11.85676 | 34878 ft | 490 kts | 88° |
| 2026-05-06 18:22 | 56.01631 | -11.73602 | 34880 ft | 490 kts | 88° |
| 2026-05-06 18:22 | 56.01598 | -11.61457 | 34883 ft | 490 kts | 88° |
| 2026-05-06 18:23 | 56.01552 | -11.49284 | 34880 ft | 490 kts | 87° |
| 2026-05-06 18:23 | 56.01496 | -11.37160 | 34880 ft | 490 kts | 87° |
| 2026-05-06 18:24 | 56.01432 | -11.25091 | 34877 ft | 490 kts | 88° |
| 2026-05-06 18:24 | 56.01353 | -11.12936 | 34883 ft | 490 kts | 88° |
| 2026-05-06 18:25 | 56.01259 | -11.00848 | 34884 ft | 489 kts | 88° |
| 2026-05-06 18:25 | 56.01157 | -10.88763 | 34887 ft | 489 kts | 88° |
| 2026-05-06 18:26 | 56.01041 | -10.76674 | 34889 ft | 489 kts | 88° |
| 2026-05-06 18:26 | 56.00912 | -10.64488 | 34894 ft | 490 kts | 88° |
| 2026-05-06 18:27 | 56.00773 | -10.52377 | 34893 ft | 490 kts | 88° |
| 2026-05-06 18:27 | 56.00621 | -10.40306 | 34893 ft | 490 kts | 88° |
| 2026-05-06 18:28 | 56.00457 | -10.28188 | 34893 ft | 491 kts | 88° |
| 2026-05-06 18:28 | 56.00277 | -10.16002 | 34895 ft | 491 kts | 88° |
| 2026-05-06 18:29 | 56.00084 | -10.03846 | 34901 ft | 491 kts | 88° |
| 2026-05-06 18:29 | 55.99656 | -9.91708 | 34908 ft | 493 kts | 91° |
| 2026-05-06 18:30 | 55.99063 | -9.79579 | 34913 ft | 492 kts | 92° |
| 2026-05-06 18:30 | 55.98451 | -9.67469 | 34917 ft | 492 kts | 91° |
| 2026-05-06 18:31 | 55.97832 | -9.55349 | 34920 ft | 492 kts | 91° |
| 2026-05-06 18:31 | 55.97202 | -9.43192 | 34922 ft | 493 kts | 91° |
| 2026-05-06 18:32 | 55.96563 | -9.31076 | 34924 ft | 492 kts | 92° |
| 2026-05-06 18:32 | 55.95913 | -9.18999 | 34930 ft | 491 kts | 92° |
| 2026-05-06 18:33 | 55.95250 | -9.06915 | 34930 ft | 491 kts | 92° |
| 2026-05-06 18:33 | 55.94571 | -8.94791 | 34933 ft | 491 kts | 92° |
| 2026-05-06 18:34 | 55.93888 | -8.82752 | 34935 ft | 491 kts | 92° |
| 2026-05-06 18:34 | 55.93189 | -8.70668 | 34934 ft | 490 kts | 92° |
| 2026-05-06 18:35 | 55.92485 | -8.58661 | 34935 ft | 490 kts | 92° |
| 2026-05-06 18:35 | 55.91765 | -8.46600 | 34935 ft | 489 kts | 92° |
| 2026-05-06 18:36 | 55.91034 | -8.34571 | 34935 ft | 489 kts | 93° |
| 2026-05-06 18:36 | 55.90290 | -8.22537 | 34935 ft | 490 kts | 93° |
| 2026-05-06 18:37 | 55.89664 | -8.12529 | 34936 ft | 489 kts | 93° |
| 2026-05-06 18:37 | 55.88774 | -7.98536 | 34935 ft | 489 kts | 93° |
| 2026-05-06 18:38 | 55.87998 | -7.86573 | 34942 ft | 489 kts | 93° |
| 2026-05-06 18:38 | 55.87210 | -7.74625 | 34942 ft | 489 kts | 92° |
| 2026-05-06 18:39 | 55.86414 | -7.62688 | 34945 ft | 489 kts | 93° |
| 2026-05-06 18:40 | 55.85189 | -7.44657 | 34951 ft | 488 kts | 93° |
| 2026-05-06 18:40 | 55.84362 | -7.32733 | 34955 ft | 488 kts | 94° |
| 2026-05-06 18:41 | 55.83516 | -7.20699 | 34958 ft | 488 kts | 94° |
| 2026-05-06 18:41 | 55.82671 | -7.08810 | 34957 ft | 488 kts | 93° |
| 2026-05-06 18:42 | 55.81805 | -6.96868 | 34956 ft | 486 kts | 93° |
| 2026-05-06 18:42 | 55.80935 | -6.84964 | 35066 ft | 488 kts | 94° |
| 2026-05-06 18:42 | 55.80497 | -6.79028 | 35277 ft | 487 kts | 94° |
| 2026-05-06 18:43 | 55.80049 | -6.73027 | 35492 ft | 485 kts | 94° |
| 2026-05-06 18:43 | 55.79608 | -6.67134 | 35676 ft | 484 kts | 94° |
| 2026-05-06 18:43 | 55.79168 | -6.61278 | 35826 ft | 483 kts | 94° |
| 2026-05-06 18:43 | 55.78714 | -6.55314 | 35959 ft | 483 kts | 94° |
| 2026-05-06 18:44 | 55.78269 | -6.49495 | 36073 ft | 483 kts | 94° |
| 2026-05-06 18:44 | 55.77816 | -6.43621 | 36202 ft | 482 kts | 94° |
| 2026-05-06 18:44 | 55.77356 | -6.37673 | 36326 ft | 482 kts | 94° |
| 2026-05-06 18:44 | 55.76897 | -6.31810 | 36441 ft | 482 kts | 95° |
| 2026-05-06 18:45 | 55.76440 | -6.25982 | 36548 ft | 482 kts | 95° |
| 2026-05-06 18:45 | 55.75977 | -6.20112 | 36705 ft | 481 kts | 95° |
| 2026-05-06 18:45 | 55.75512 | -6.14247 | 36851 ft | 481 kts | 96° |
| 2026-05-06 18:46 | 55.74570 | -6.02509 | 36951 ft | 481 kts | 96° |
| 2026-05-06 18:46 | 55.73615 | -5.90788 | 36947 ft | 480 kts | 96° |
| 2026-05-06 18:47 | 55.72654 | -5.79096 | 36947 ft | 480 kts | 96° |
| 2026-05-06 18:47 | 55.71679 | -5.67394 | 36954 ft | 479 kts | 95° |
| 2026-05-06 18:48 | 55.70692 | -5.55655 | 36951 ft | 480 kts | 96° |
| 2026-05-06 18:48 | 55.69700 | -5.44023 | 36949 ft | 479 kts | 95° |
| 2026-05-06 18:49 | 55.68696 | -5.32351 | 36952 ft | 480 kts | 96° |
| 2026-05-06 18:49 | 55.67680 | -5.20706 | 36958 ft | 479 kts | 96° |
| 2026-05-06 18:50 | 55.66650 | -5.09018 | 36962 ft | 479 kts | 96° |
| 2026-05-06 18:50 | 55.65607 | -4.97318 | 36968 ft | 478 kts | 97° |
| 2026-05-06 18:51 | 55.64557 | -4.85672 | 36974 ft | 478 kts | 96° |
| 2026-05-06 18:51 | 55.63493 | -4.74011 | 36978 ft | 478 kts | 96° |
| 2026-05-06 18:52 | 55.62426 | -4.62420 | 36977 ft | 477 kts | 96° |
| 2026-05-06 18:52 | 55.61344 | -4.50817 | 36980 ft | 477 kts | 96° |
| 2026-05-06 18:53 | 55.60253 | -4.39228 | 36972 ft | 477 kts | 96° |
| 2026-05-06 18:53 | 55.59142 | -4.27548 | 36967 ft | 477 kts | 97° |
| 2026-05-06 18:54 | 55.58037 | -4.16049 | 36982 ft | 477 kts | 97° |
| 2026-05-06 18:54 | 55.56907 | -4.04445 | 36985 ft | 476 kts | 97° |
| 2026-05-06 18:55 | 55.55771 | -3.92867 | 36962 ft | 475 kts | 97° |
| 2026-05-06 18:55 | 55.54630 | -3.81348 | 36958 ft | 476 kts | 97° |
| 2026-05-06 18:56 | 55.53474 | -3.69836 | 36968 ft | 476 kts | 97° |
| 2026-05-06 18:56 | 55.52313 | -3.58372 | 36963 ft | 475 kts | 97° |
| 2026-05-06 18:57 | 55.51136 | -3.46888 | 36963 ft | 474 kts | 97° |
| 2026-05-06 18:57 | 55.49946 | -3.35488 | 36958 ft | 474 kts | 98° |
| 2026-05-06 18:58 | 55.48523 | -3.24169 | 36963 ft | 474 kts | 101° |
| 2026-05-06 18:58 | 55.47037 | -3.12762 | 36969 ft | 475 kts | 101° |
| 2026-05-06 18:59 | 55.45539 | -3.01359 | 36970 ft | 475 kts | 101° |
| 2026-05-06 18:59 | 55.44041 | -2.90036 | 36973 ft | 475 kts | 101° |
| 2026-05-06 19:00 | 55.42524 | -2.78647 | 36980 ft | 474 kts | 101° |
| 2026-05-06 19:00 | 55.41003 | -2.67328 | 36982 ft | 473 kts | 101° |
| 2026-05-06 19:01 | 55.39494 | -2.56174 | 36984 ft | 473 kts | 101° |
| 2026-05-06 19:01 | 55.37952 | -2.44863 | 36980 ft | 473 kts | 101° |
| 2026-05-06 19:02 | 55.36430 | -2.33787 | 36988 ft | 473 kts | 102° |
| 2026-05-06 19:02 | 55.34878 | -2.22569 | 36993 ft | 472 kts | 102° |
| 2026-05-06 19:03 | 55.33304 | -2.11280 | 36999 ft | 473 kts | 102° |
| 2026-05-06 19:03 | 55.31726 | -2.00043 | 37001 ft | 473 kts | 102° |
| 2026-05-06 19:04 | 55.30150 | -1.88891 | 37006 ft | 473 kts | 102° |
| 2026-05-06 19:04 | 55.28555 | -1.77699 | 37014 ft | 473 kts | 102° |
| 2026-05-06 19:05 | 55.26938 | -1.66449 | 37023 ft | 473 kts | 102° |
| 2026-05-06 19:05 | 55.25326 | -1.55299 | 37028 ft | 472 kts | 102° |
| 2026-05-06 19:06 | 55.23711 | -1.44210 | 37033 ft | 473 kts | 102° |
| 2026-05-06 19:06 | 55.22075 | -1.33047 | 37032 ft | 472 kts | 103° |
| 2026-05-06 19:07 | 55.20438 | -1.21954 | 37036 ft | 472 kts | 103° |
| 2026-05-06 19:07 | 55.18795 | -1.10910 | 37303 ft | 472 kts | 103° |
| 2026-05-06 19:07 | 55.17969 | -1.05386 | 37178 ft | 470 kts | 103° |
| 2026-05-06 19:08 | 55.17135 | -0.99828 | 37113 ft | 470 kts | 103° |
| 2026-05-06 19:08 | 55.16316 | -0.94389 | 36777 ft | 469 kts | 103° |
| 2026-05-06 19:08 | 55.15476 | -0.88821 | 36924 ft | 468 kts | 103° |
| 2026-05-06 19:09 | 55.13815 | -0.77863 | 37201 ft | 471 kts | 103° |
| 2026-05-06 19:09 | 55.12135 | -0.66874 | 37090 ft | 469 kts | 103° |
| 2026-05-06 19:10 | 55.10439 | -0.55844 | 37064 ft | 469 kts | 103° |
| 2026-05-06 19:10 | 55.08745 | -0.44905 | 37048 ft | 469 kts | 104° |
| 2026-05-06 19:11 | 55.07036 | -0.33943 | 37049 ft | 469 kts | 104° |
| 2026-05-06 19:11 | 55.05317 | -0.22987 | 37049 ft | 469 kts | 104° |
| 2026-05-06 19:12 | 55.03597 | -0.12102 | 37047 ft | 468 kts | 104° |
| 2026-05-06 19:12 | 55.01860 | -0.01175 | 37050 ft | 468 kts | 104° |
| 2026-05-06 19:13 | 55.00121 | 0.09699 | 37052 ft | 468 kts | 105° |
| 2026-05-06 19:13 | 54.98369 | 0.20590 | 37054 ft | 468 kts | 105° |
| 2026-05-06 19:14 | 54.96611 | 0.31431 | 37057 ft | 469 kts | 105° |
| 2026-05-06 19:14 | 54.94835 | 0.42319 | 37055 ft | 469 kts | 105° |
| 2026-05-06 19:15 | 54.93051 | 0.53182 | 37054 ft | 469 kts | 105° |
| 2026-05-06 19:15 | 54.91260 | 0.64022 | 37054 ft | 469 kts | 105° |
| 2026-05-06 19:16 | 54.89459 | 0.74862 | 37055 ft | 468 kts | 106° |
| 2026-05-06 19:16 | 54.87643 | 0.85709 | 37053 ft | 467 kts | 106° |
| 2026-05-06 19:17 | 54.85841 | 0.96430 | 37055 ft | 467 kts | 106° |
| 2026-05-06 19:17 | 54.84008 | 1.07260 | 37052 ft | 467 kts | 106° |
| 2026-05-06 19:18 | 54.82178 | 1.18000 | 37057 ft | 467 kts | 107° |
| 2026-05-06 19:18 | 54.80322 | 1.28829 | 37049 ft | 468 kts | 107° |
| 2026-05-06 19:19 | 54.78476 | 1.39530 | 37050 ft | 468 kts | 107° |
| 2026-05-06 19:19 | 54.76605 | 1.50310 | 37049 ft | 468 kts | 107° |
| 2026-05-06 19:20 | 54.74722 | 1.61098 | 37050 ft | 468 kts | 107° |
| 2026-05-06 19:20 | 54.72850 | 1.71759 | 37047 ft | 468 kts | 108° |
| 2026-05-06 19:21 | 54.70942 | 1.82561 | 37048 ft | 468 kts | 108° |
| 2026-05-06 19:21 | 54.69043 | 1.93244 | 37048 ft | 468 kts | 108° |
| 2026-05-06 19:22 | 54.67125 | 2.03978 | 37044 ft | 467 kts | 108° |
| 2026-05-06 19:22 | 54.65209 | 2.14639 | 37040 ft | 467 kts | 108° |
| 2026-05-06 19:23 | 54.63278 | 2.25313 | 37039 ft | 467 kts | 108° |
| 2026-05-06 19:23 | 54.61339 | 2.35970 | 37040 ft | 467 kts | 108° |
| 2026-05-06 19:24 | 54.59387 | 2.46645 | 37036 ft | 467 kts | 108° |
| 2026-05-06 19:24 | 54.57429 | 2.57285 | 37035 ft | 467 kts | 108° |
| 2026-05-06 19:25 | 54.55457 | 2.67941 | 37033 ft | 467 kts | 109° |
| 2026-05-06 19:25 | 54.53482 | 2.78552 | 37031 ft | 467 kts | 109° |
| 2026-05-06 19:26 | 54.51501 | 2.89130 | 37028 ft | 466 kts | 109° |
| 2026-05-06 19:26 | 54.49507 | 2.99729 | 37027 ft | 467 kts | 109° |
| 2026-05-06 19:27 | 54.47499 | 3.10337 | 37029 ft | 467 kts | 109° |
| 2026-05-06 19:27 | 54.45480 | 3.20943 | 37030 ft | 466 kts | 109° |
| 2026-05-06 19:28 | 54.43467 | 3.31453 | 37028 ft | 466 kts | 109° |
| 2026-05-06 19:28 | 54.41438 | 3.41995 | 37024 ft | 466 kts | 109° |
| 2026-05-06 19:29 | 54.39400 | 3.52523 | 37021 ft | 466 kts | 109° |
| 2026-05-06 19:29 | 54.37349 | 3.63060 | 37022 ft | 465 kts | 109° |
| 2026-05-06 19:30 | 54.35292 | 3.73573 | 37021 ft | 465 kts | 110° |
| 2026-05-06 19:30 | 54.33229 | 3.84052 | 37021 ft | 465 kts | 110° |
| 2026-05-06 19:31 | 54.31168 | 3.94467 | 37019 ft | 464 kts | 110° |
| 2026-05-06 19:31 | 54.28028 | 4.10211 | 37021 ft | 465 kts | 110° |
| 2026-05-06 19:32 | 54.25929 | 4.20653 | 37022 ft | 464 kts | 110° |
| 2026-05-06 19:32 | 54.23966 | 4.31100 | 37016 ft | 465 kts | 106° |
| 2026-05-06 19:33 | 54.22506 | 4.41926 | 37013 ft | 466 kts | 103° |
| 2026-05-06 19:33 | 54.21136 | 4.52663 | 37010 ft | 465 kts | 103° |
| 2026-05-06 19:34 | 54.19741 | 4.63453 | 37008 ft | 465 kts | 103° |
| 2026-05-06 19:34 | 54.18328 | 4.74256 | 36998 ft | 465 kts | 104° |
| 2026-05-06 19:35 | 54.16915 | 4.84963 | 36994 ft | 464 kts | 104° |
| 2026-05-06 19:35 | 54.15494 | 4.95648 | 36997 ft | 464 kts | 104° |
| 2026-05-06 19:36 | 54.14059 | 5.06347 | 36986 ft | 464 kts | 104° |
| 2026-05-06 19:36 | 54.12614 | 5.17048 | 36983 ft | 464 kts | 104° |
| 2026-05-06 19:37 | 54.11158 | 5.27751 | 36982 ft | 464 kts | 104° |
| 2026-05-06 19:37 | 54.09929 | 5.36730 | 36982 ft | 464 kts | 104° |
| 2026-05-06 19:38 | 54.08213 | 5.49174 | 36986 ft | 464 kts | 104° |
| 2026-05-06 19:38 | 54.06727 | 5.59867 | 36988 ft | 463 kts | 104° |
| 2026-05-06 19:39 | 54.05227 | 5.70587 | 36984 ft | 463 kts | 105° |
| 2026-05-06 19:39 | 54.03723 | 5.81259 | 36982 ft | 463 kts | 105° |
| 2026-05-06 19:40 | 54.02211 | 5.91914 | 36978 ft | 463 kts | 105° |
| 2026-05-06 19:40 | 54.00693 | 6.02540 | 36973 ft | 463 kts | 105° |
| 2026-05-06 19:41 | 53.99157 | 6.13214 | 36964 ft | 463 kts | 105° |
| 2026-05-06 19:41 | 53.97626 | 6.23781 | 36956 ft | 463 kts | 105° |
| 2026-05-06 19:42 | 53.96078 | 6.34393 | 36955 ft | 462 kts | 105° |
| 2026-05-06 19:42 | 53.94551 | 6.44795 | 36948 ft | 462 kts | 105° |
| 2026-05-06 19:43 | 53.92988 | 6.55368 | 36947 ft | 462 kts | 105° |
| 2026-05-06 19:43 | 53.91415 | 6.65937 | 36945 ft | 461 kts | 106° |
| 2026-05-06 19:44 | 53.89828 | 6.76533 | 36945 ft | 461 kts | 106° |
| 2026-05-06 19:44 | 53.88233 | 6.87105 | 36942 ft | 461 kts | 106° |
| 2026-05-06 19:45 | 53.86634 | 6.97640 | 36943 ft | 461 kts | 106° |
| 2026-05-06 19:45 | 53.85013 | 7.08251 | 36944 ft | 461 kts | 106° |
| 2026-05-06 19:46 | 53.83396 | 7.18766 | 36944 ft | 461 kts | 106° |
| 2026-05-06 19:46 | 53.81762 | 7.29325 | 36939 ft | 460 kts | 106° |
| 2026-05-06 19:47 | 53.80114 | 7.39899 | 36934 ft | 460 kts | 106° |
| 2026-05-06 19:47 | 53.78465 | 7.50417 | 36930 ft | 460 kts | 106° |
| 2026-05-06 19:48 | 53.76809 | 7.60914 | 36926 ft | 460 kts | 106° |
| 2026-05-06 19:48 | 53.75146 | 7.71389 | 36924 ft | 460 kts | 107° |
| 2026-05-06 19:49 | 53.73480 | 7.81819 | 36924 ft | 459 kts | 107° |
| 2026-05-06 19:49 | 53.71800 | 7.92270 | 36925 ft | 459 kts | 107° |
| 2026-05-06 19:50 | 53.70110 | 8.02711 | 36923 ft | 459 kts | 107° |
| 2026-05-06 19:50 | 53.68422 | 8.13084 | 36920 ft | 459 kts | 107° |
| 2026-05-06 19:51 | 53.66708 | 8.23544 | 36918 ft | 459 kts | 107° |
| 2026-05-06 19:51 | 53.64992 | 8.33962 | 36915 ft | 459 kts | 107° |
| 2026-05-06 19:52 | 53.63273 | 8.44337 | 36911 ft | 459 kts | 107° |
| 2026-05-06 19:52 | 53.61532 | 8.54775 | 36909 ft | 459 kts | 107° |
| 2026-05-06 19:53 | 53.59791 | 8.65151 | 36906 ft | 459 kts | 108° |
| 2026-05-06 19:53 | 53.58050 | 8.75463 | 36902 ft | 458 kts | 108° |
| 2026-05-06 19:54 | 53.56300 | 8.85769 | 36895 ft | 458 kts | 108° |
| 2026-05-06 19:54 | 53.54537 | 8.96096 | 36887 ft | 458 kts | 108° |
| 2026-05-06 19:55 | 53.52781 | 9.06316 | 36885 ft | 459 kts | 108° |
| 2026-05-06 19:55 | 53.51009 | 9.16573 | 36883 ft | 459 kts | 108° |
| 2026-05-06 19:56 | 53.49225 | 9.26836 | 36888 ft | 459 kts | 108° |
| 2026-05-06 19:56 | 53.47438 | 9.37062 | 36885 ft | 459 kts | 108° |
| 2026-05-06 19:57 | 53.45642 | 9.47276 | 36887 ft | 459 kts | 108° |
| 2026-05-06 19:57 | 53.43863 | 9.57343 | 36884 ft | 459 kts | 108° |
| 2026-05-06 19:58 | 53.42075 | 9.67399 | 36886 ft | 458 kts | 109° |
| 2026-05-06 19:58 | 53.40282 | 9.77428 | 36883 ft | 458 kts | 109° |
| 2026-05-06 19:59 | 53.38458 | 9.87572 | 36880 ft | 458 kts | 109° |
| 2026-05-06 19:59 | 53.36695 | 9.97328 | 36881 ft | 459 kts | 110° |
| 2026-05-06 20:00 | 53.34870 | 10.07369 | 36877 ft | 459 kts | 110° |
| 2026-05-06 20:00 | 53.33017 | 10.17511 | 36872 ft | 459 kts | 110° |
| 2026-05-06 20:01 | 53.31133 | 10.27758 | 36872 ft | 460 kts | 110° |
| 2026-05-06 20:01 | 53.29254 | 10.37925 | 36873 ft | 460 kts | 110° |
| 2026-05-06 20:02 | 53.27351 | 10.48166 | 36862 ft | 460 kts | 110° |
| 2026-05-06 20:02 | 53.25446 | 10.58358 | 36868 ft | 460 kts | 110° |
| 2026-05-06 20:03 | 53.23540 | 10.68507 | 36860 ft | 460 kts | 111° |
| 2026-05-06 20:03 | 53.21659 | 10.78462 | 36844 ft | 460 kts | 111° |
| 2026-05-06 20:04 | 53.20704 | 10.83497 | 36607 ft | 461 kts | 111° |
| 2026-05-06 20:04 | 53.19728 | 10.88630 | 36100 ft | 462 kts | 111° |
| 2026-05-06 20:04 | 53.18751 | 10.93741 | 35436 ft | 465 kts | 111° |
| 2026-05-06 20:04 | 53.17769 | 10.98871 | 34758 ft | 468 kts | 111° |
| 2026-05-06 20:05 | 53.16791 | 11.03960 | 34138 ft | 469 kts | 111° |
| 2026-05-06 20:05 | 53.15796 | 11.09124 | 33558 ft | 470 kts | 111° |
| 2026-05-06 20:05 | 53.14813 | 11.14209 | 32972 ft | 471 kts | 110° |
| 2026-05-06 20:05 | 53.13809 | 11.19394 | 32239 ft | 472 kts | 110° |
| 2026-05-06 20:06 | 53.12751 | 11.24539 | 31477 ft | 472 kts | 113° |
| 2026-05-06 20:06 | 53.11529 | 11.29553 | 30643 ft | 471 kts | 116° |
| 2026-05-06 20:06 | 53.10128 | 11.34437 | 29705 ft | 472 kts | 120° |
| 2026-05-06 20:06 | 53.08555 | 11.39285 | 28703 ft | 473 kts | 121° |
| 2026-05-06 20:07 | 53.06959 | 11.44101 | 27665 ft | 477 kts | 121° |
| 2026-05-06 20:07 | 53.05352 | 11.48963 | 26737 ft | 477 kts | 120° |
| 2026-05-06 20:07 | 53.03941 | 11.53881 | 26128 ft | 472 kts | 115° |
| 2026-05-06 20:07 | 53.02781 | 11.58955 | 25506 ft | 468 kts | 110° |
| 2026-05-06 20:08 | 53.01845 | 11.64162 | 24840 ft | 465 kts | 107° |
| 2026-05-06 20:08 | 53.01069 | 11.68806 | 24168 ft | 463 kts | 107° |
| 2026-05-06 20:08 | 53.00176 | 11.74223 | 23471 ft | 459 kts | 107° |
| 2026-05-06 20:08 | 52.99449 | 11.79355 | 22882 ft | 455 kts | 103° |
| 2026-05-06 20:09 | 52.98981 | 11.84591 | 22309 ft | 451 kts | 97° |
| 2026-05-06 20:09 | 52.98768 | 11.89719 | 21768 ft | 447 kts | 94° |
| 2026-05-06 20:09 | 52.98631 | 11.94863 | 21219 ft | 442 kts | 94° |
| 2026-05-06 20:09 | 52.98510 | 11.99921 | 20694 ft | 438 kts | 94° |
| 2026-05-06 20:10 | 52.98383 | 12.04977 | 20181 ft | 433 kts | 94° |
| 2026-05-06 20:10 | 52.98249 | 12.09945 | 19674 ft | 429 kts | 94° |
| 2026-05-06 20:10 | 52.98109 | 12.14915 | 19168 ft | 424 kts | 94° |
| 2026-05-06 20:10 | 52.97968 | 12.19755 | 18690 ft | 420 kts | 94° |
| 2026-05-06 20:11 | 52.97824 | 12.24619 | 18199 ft | 417 kts | 94° |
| 2026-05-06 20:11 | 52.97630 | 12.29342 | 17693 ft | 412 kts | 100° |
| 2026-05-06 20:11 | 52.96688 | 12.33767 | 17156 ft | 401 kts | 124° |
| 2026-05-06 20:11 | 52.94854 | 12.37099 | 16654 ft | 389 kts | 146° |
| 2026-05-06 20:12 | 52.92598 | 12.39502 | 16166 ft | 384 kts | 151° |
| 2026-05-06 20:12 | 52.90324 | 12.41830 | 15660 ft | 382 kts | 150° |
| 2026-05-06 20:12 | 52.88106 | 12.44132 | 15160 ft | 379 kts | 150° |
| 2026-05-06 20:12 | 52.85892 | 12.46459 | 14673 ft | 377 kts | 150° |
| 2026-05-06 20:13 | 52.83676 | 12.48808 | 14176 ft | 375 kts | 149° |
| 2026-05-06 20:13 | 52.81462 | 12.51164 | 13668 ft | 373 kts | 149° |
| 2026-05-06 20:13 | 52.79271 | 12.53501 | 13149 ft | 371 kts | 149° |
| 2026-05-06 20:13 | 52.77114 | 12.55800 | 12631 ft | 370 kts | 149° |
| 2026-05-06 20:14 | 52.74940 | 12.58116 | 12103 ft | 368 kts | 149° |
| 2026-05-06 20:14 | 52.72805 | 12.60390 | 11623 ft | 365 kts | 149° |
| 2026-05-06 20:14 | 52.70649 | 12.62681 | 11127 ft | 363 kts | 149° |
| 2026-05-06 20:14 | 52.68552 | 12.64907 | 10694 ft | 359 kts | 149° |
| 2026-05-06 20:15 | 52.66474 | 12.67115 | 10441 ft | 348 kts | 149° |
| 2026-05-06 20:15 | 52.64494 | 12.69216 | 10299 ft | 334 kts | 149° |
| 2026-05-06 20:15 | 52.62567 | 12.71260 | 10161 ft | 322 kts | 150° |
| 2026-05-06 20:15 | 52.60742 | 12.73296 | 10004 ft | 311 kts | 146° |
| 2026-05-06 20:16 | 52.59023 | 12.75376 | 9871 ft | 300 kts | 146° |
| 2026-05-06 20:16 | 52.57366 | 12.77390 | 9570 ft | 296 kts | 146° |
| 2026-05-06 20:16 | 52.55724 | 12.79382 | 9188 ft | 294 kts | 146° |
| 2026-05-06 20:16 | 52.54120 | 12.81327 | 8823 ft | 293 kts | 146° |
| 2026-05-06 20:17 | 52.52459 | 12.83337 | 8454 ft | 290 kts | 145° |
| 2026-05-06 20:17 | 52.50824 | 12.85317 | 8099 ft | 288 kts | 145° |
| 2026-05-06 20:17 | 52.49221 | 12.87256 | 7751 ft | 286 kts | 145° |
| 2026-05-06 20:17 | 52.47632 | 12.89174 | 7410 ft | 284 kts | 144° |
| 2026-05-06 20:18 | 52.46030 | 12.91104 | 7061 ft | 282 kts | 144° |
| 2026-05-06 20:18 | 52.44460 | 12.92997 | 6709 ft | 280 kts | 144° |
| 2026-05-06 20:18 | 52.42876 | 12.94908 | 6361 ft | 278 kts | 144° |
| 2026-05-06 20:18 | 52.41304 | 12.96801 | 6024 ft | 276 kts | 143° |
| 2026-05-06 20:19 | 52.39773 | 12.98641 | 5701 ft | 273 kts | 143° |
| 2026-05-06 20:19 | 52.38180 | 13.00418 | 5360 ft | 272 kts | 149° |
| 2026-05-06 20:19 | 52.36515 | 13.01806 | 5036 ft | 270 kts | 155° |
| 2026-05-06 20:19 | 52.34806 | 13.02984 | 4714 ft | 268 kts | 156° |
| 2026-05-06 20:20 | 52.33073 | 13.04138 | 4392 ft | 266 kts | 156° |
| 2026-05-06 20:20 | 52.31373 | 13.05273 | 4086 ft | 264 kts | 156° |
| 2026-05-06 20:20 | 52.29699 | 13.06397 | 3994 ft | 251 kts | 155° |
| 2026-05-06 20:20 | 52.28254 | 13.07802 | 3969 ft | 237 kts | 130° |
| 2026-05-06 20:21 | 52.27490 | 13.10099 | 3988 ft | 233 kts | 98° |
| 2026-05-06 20:21 | 52.27605 | 13.12634 | 3993 ft | 229 kts | 66° |
| 2026-05-06 20:21 | 52.28382 | 13.14889 | 3996 ft | 221 kts | 57° |
| 2026-05-06 20:21 | 52.29125 | 13.17014 | 3986 ft | 213 kts | 62° |
| 2026-05-06 20:22 | 52.29778 | 13.19190 | 3924 ft | 213 kts | 63° |
| 2026-05-06 20:22 | 52.30377 | 13.21386 | 3663 ft | 212 kts | 66° |
| 2026-05-06 20:22 | 52.30924 | 13.23588 | 3405 ft | 208 kts | 67° |
| 2026-05-06 20:22 | 52.31430 | 13.25735 | 3195 ft | 199 kts | 68° |
| 2026-05-06 20:23 | 52.31908 | 13.27796 | 2897 ft | 194 kts | 68° |
| 2026-05-06 20:23 | 52.32377 | 13.29817 | 2608 ft | 188 kts | 67° |
| 2026-05-06 20:23 | 52.32818 | 13.31713 | 2366 ft | 171 kts | 67° |
| 2026-05-06 20:23 | 52.33226 | 13.33466 | 2100 ft | 157 kts | 66° |
| 2026-05-06 20:24 | 52.33578 | 13.34971 | 1893 ft | 142 kts | 66° |
| 2026-05-06 20:24 | 52.33907 | 13.36373 | 1704 ft | 133 kts | 66° |
| 2026-05-06 20:24 | 52.34231 | 13.37749 | 1541 ft | 132 kts | 66° |
| 2026-05-06 20:24 | 52.34552 | 13.39110 | 1385 ft | 132 kts | 66° |
| 2026-05-06 20:25 | 52.34876 | 13.40485 | 1216 ft | 131 kts | 66° |
| 2026-05-06 20:25 | 52.35195 | 13.41842 | 1045 ft | 131 kts | 67° |
| 2026-05-06 20:25 | 52.35498 | 13.43165 | 845 ft | 131 kts | 66° |
| 2026-05-06 20:25 | 52.35816 | 13.44508 | 664 ft | 130 kts | 66° |
| 2026-05-06 20:26 | 52.36132 | 13.45829 | 537 ft | 130 kts | 67° |
| 2026-05-06 20:26 | 52.36443 | 13.47141 | 399 ft | 130 kts | 66° |
| 2026-05-06 20:26 | 52.36755 | 13.48448 | 225 ft | 129 kts | 67° |
| 2026-05-06 20:26 | 52.37060 | 13.49720 | 167 ft | 117 kts | 68° |
| 2026-05-06 20:27 | 52.37296 | 13.50715 | 166 ft | 78 kts | 68° |
| 2026-05-06 20:27 | 52.37430 | 13.51291 | 166 ft | 21 kts | 71° |
| 2026-05-06 20:27 | 52.37455 | 13.51520 | 166 ft | 20 kts | 90° |
| 2026-05-06 20:27 | 52.37440 | 13.51741 | 166 ft | 19 kts | 99° |
| 2026-05-06 20:28 | 52.37419 | 13.51912 | 166 ft | 11 kts | 112° |
| 2026-05-06 20:28 | 52.37374 | 13.51955 | 166 ft | 7 kts | 193° |
| 2026-05-06 20:28 | 52.37338 | 13.51896 | 166 ft | 9 kts | 245° |
| 2026-05-06 20:28 | 52.37312 | 13.51790 | 166 ft | 12 kts | 248° |
| 2026-05-06 20:29 | 52.37277 | 13.51639 | 166 ft | 16 kts | 248° |
| 2026-05-06 20:29 | 52.37232 | 13.51450 | 166 ft | 19 kts | 249° |
| 2026-05-06 20:29 | 52.37185 | 13.51252 | 166 ft | 19 kts | 249° |
| 2026-05-06 20:29 | 52.37141 | 13.51066 | 166 ft | 19 kts | 249° |
| 2026-05-06 20:30 | 52.37102 | 13.50898 | 166 ft | 19 kts | 249° |
| 2026-05-06 20:30 | 52.37007 | 13.50501 | 166 ft | 18 kts | 248° |
| 2026-05-06 20:30 | 52.36965 | 13.50326 | 166 ft | 18 kts | 249° |
| 2026-05-06 20:31 | 52.36926 | 13.50161 | 166 ft | 4 kts | 248° |
| 2026-05-06 20:31 | 52.36899 | 13.50123 | 166 ft | 5 kts | 189° |
| 2026-05-06 20:31 | 52.36858 | 13.50136 | 166 ft | 6 kts | 159° |
| 2026-05-06 20:31 | 52.36811 | 13.50167 | 166 ft | 7 kts | 158° |
| 2026-05-06 20:32 | 52.36758 | 13.50201 | 166 ft | 8 kts | 157° |
| 2026-05-06 20:32 | 52.36699 | 13.50240 | 166 ft | 9 kts | 158° |
| 2026-05-06 20:32 | 52.36640 | 13.50277 | 166 ft | 10 kts | 158° |
| 2026-05-06 20:32 | 52.36570 | 13.50322 | 166 ft | 11 kts | 159° |
| 2026-05-06 20:33 | 52.36491 | 13.50371 | 166 ft | 12 kts | 158° |
| 2026-05-06 20:33 | 52.36412 | 13.50421 | 166 ft | 12 kts | 158° |
| 2026-05-06 20:33 | 52.36328 | 13.50473 | 166 ft | 13 kts | 158° |
| 2026-05-06 20:33 | 52.36269 | 13.50511 | 166 ft | 2 kts | 158° |
| 2026-05-06 20:34 | 52.36259 | 13.50528 | 166 ft | 2 kts | 96° |
| 2026-05-06 20:34 | 52.36262 | 13.50565 | 166 ft | 2 kts | 66° |
| 2026-05-06 20:34 | 52.36270 | 13.50597 | 166 ft | 3 kts | 69° |
| 2026-05-06 20:34 | 52.36280 | 13.50640 | 166 ft | 3 kts | 69° |
| 2026-05-06 20:35 | 52.36282 | 13.50649 | 166 ft | 0 kts | 68° |